Flight Track Log - Related Links

Times and Time Zones

All times are in EDT time to prevent confusion due to time zone crossing. See the VJT772 flight status page for this flight to view local times or setup timezone preferences in your user account.

Time Position Orientation Groundspeed Altitude Reporting Facility
EDT Latitude Longitude Course Direction KTS MPH feet Rate Location/Type
Fri 04:22:23 PM 48.9730 2.4920 97° East 145 167 2,100  Level FlightAware ADS-B
Fri 04:22:53 PM 48.9690 2.5230 101° East 159 183 3,100 1,800 Climbing FlightAware ADS-B
Fri 04:23:03 PM 48.9660 2.5340 113° Southeast 174 200 3,300 1,200 Climbing FlightAware ADS-B
Fri 04:23:18 PM 48.9560 2.5480 137° Southeast 198 228 3,600 1,440 Climbing FlightAware ADS-B
Fri 04:23:28 PM 48.9470 2.5510 168° South 209 241 3,900 2,200 Climbing FlightAware ADS-B
Fri 04:23:48 PM 48.9300 2.5360 210° Southwest 216 249 4,700 2,400 Climbing FlightAware ADS-B
Fri 04:23:58 PM 48.9270 2.5210 253° West 216 249 5,100 2,229 Climbing FlightAware ADS-B
Fri 04:24:23 PM 48.9250 2.4820 266° West 225 259 6,000 2,291 Climbing FlightAware ADS-B
Fri 04:24:53 PM 48.9230 2.4330 266° West 237 273 7,200 1,745 Climbing FlightAware ADS-B
Fri 04:25:18 PM 48.9270 2.3890 278° West 268 308 7,600 1,418 Climbing FlightAware ADS-B
Fri 04:25:48 PM 48.9330 2.3320 278° West 289 333 8,500 1,742 Climbing FlightAware ADS-B
Fri 04:25:49 PM 48.9320 2.3262 278° West 1 1 8,500 2,538 Level FlightAware UK
Fri 04:26:14 PM 48.9380 2.2790 278° West 293 337 9,600 1,826 Climbing FlightAware ADS-B
Fri 04:26:58 PM 48.9470 2.1820 278° West 338 389 10,600 1,429 Climbing FlightAware ADS-B
Fri 04:27:38 PM 48.9560 2.0820 278° West 362 417 11,600 1,976 Climbing FlightAware ADS-B
Fri 04:28:23 PM 48.9660 1.9690 278° West 367 422 13,400 2,400 Climbing FlightAware ADS-B
Fri 04:28:58 PM 48.9730 1.8790 277° West 369 425 14,800 2,160 Climbing FlightAware ADS-B
Fri 04:29:38 PM 48.9780 1.7710 274° West 380 437 16,100 1,891 Climbing FlightAware ADS-B
Fri 04:30:30 PM 48.9850 1.6272 274° West 394 453 17,700 1,900 Climbing FlightAware UK
Fri 04:30:38 PM 48.9860 1.6110 274° West 389 448 18,000 2,000 Climbing FlightAware ADS-B
Fri 04:31:18 PM 48.9910 1.5080 274° West 393 452 19,300 1,950 Climbing FlightAware ADS-B
Fri 04:31:58 PM 48.9960 1.3950 274° West 399 459 20,600 1,974 Climbing FlightAware ADS-B
Fri 04:32:34 PM 49.0010 1.2840 274° West 406 467 21,800 1,814 Climbing FlightAware ADS-B
Fri 04:33:24 PM 49.0070 1.1410 274° West 414 476 23,200 1,643 Climbing FlightAware ADS-B
Fri 04:33:58 PM 49.0120 1.0380 274° West 420 483 24,100 1,558 Climbing FlightAware ADS-B
Fri 04:34:41 PM 49.0170 0.9160 274° West 426 490 25,200 1,500 Climbing FlightAware ADS-B
Fri 04:35:18 PM 49.0213 0.7991 274° West 442 509 26,100 1,463 Climbing FlightAware UK
Fri 04:35:22 PM 49.0220 0.7880 274° West 431 496 26,200 1,500 Climbing FlightAware ADS-B
Fri 04:35:54 PM 49.0257 0.6904 274° West 448 516 27,000 1,500 Climbing FlightAware UK
Fri 04:36:02 PM 49.0270 0.6640 274° West 437 503 27,200 1,350 Climbing FlightAware ADS-B
Fri 04:36:34 PM 49.0300 0.5670 273° West 442 509 27,900 632 Climbing FlightAware ADS-B
Fri 04:37:18 PM 49.0350 0.4330 273° West 443 510 28,000 73 Climbing FlightAware ADS-B
Fri 04:37:56 PM 49.0400 0.3130 274° West 446 513 28,000 429 Level FlightAware ADS-B
Fri 04:38:42 PM 49.0519 0.1683 274° West 458 527 28,600 766 Climbing FlightAware UK
Fri 04:38:43 PM 49.0520 0.1680 274° West 450 518 28,600 1,000 Level FlightAware ADS-B
Fri 04:39:24 PM 49.0635 0.0353 274° West 464 534 29,300 1,043 Climbing FlightAware UK
Fri 04:39:29 PM 49.0650 0.0190 274° West 460 529 29,400 1,029 Climbing FlightAware ADS-B
Fri 04:39:59 PM 49.0737 -0.0793 274° West 466 536 29,900 1,050 Climbing FlightAware UK
Fri 04:40:09 PM 49.0760 -0.1090 274° West 467 537 30,100 889 Climbing FlightAware ADS-B
Fri 04:40:53 PM 49.0890 -0.2510 278° West 478 550 30,700 977 Climbing FlightAware ADS-B
Fri 04:41:35 PM 49.1020 -0.3980 278° West 481 554 31,500 1,050 Climbing FlightAware ADS-B
Fri 04:42:13 PM 49.1120 -0.5220 277° West 484 557 32,100 1,024 Climbing FlightAware ADS-B
Fri 04:42:57 PM 49.1250 -0.6740 278° West 487 560 32,900 1,432 Climbing FlightAware ADS-B
Fri 04:43:41 PM 49.1370 -0.8230 277° West 476 548 34,200 1,650 Climbing FlightAware ADS-B
Fri 04:44:17 PM 49.1453 -0.9438 277° West 478 550 35,100 1,500 Climbing FlightAware UK
Fri 04:44:21 PM 49.1480 -0.9550 277° West 472 543 35,200 1,167 Climbing FlightAware ADS-B
Fri 04:44:53 PM 49.1549 -1.0616 277° West 478 550 35,800 1,200 Climbing FlightAware UK
Fri 04:45:01 PM 49.1590 -1.0870 277° West 470 541 36,000 682 Climbing FlightAware ADS-B
Fri 04:45:37 PM 49.1680 -1.2070 277° West 480 552 36,300 600 Climbing FlightAware ADS-B
Fri 04:46:11 PM 49.1756 -1.3207 277° West 478 550 36,700 1,000 Climbing FlightAware UK
Fri 04:46:19 PM 49.1790 -1.3480 277° West 480 552 37,000 563 Climbing FlightAware ADS-B
Fri 04:46:43 PM 49.1857 -1.4319 277° West 476 548 37,000 218 Level FlightAware ADS-B
Fri 04:47:14 PM 49.1934 -1.5337 277° West 475 547 37,200 387 Climbing FlightAware ADS-B
Fri 04:47:45 PM 49.2010 -1.6330 277° West 473 544 37,400 493 Climbing FlightAware ADS-B
Fri 04:48:27 PM 49.2110 -1.7670 277° West 469 540 37,800 493 Climbing FlightAware ADS-B
Fri 04:48:58 PM 49.2180 -1.8772 277° West 474 545 38,000 293 Climbing FlightAware UK
Fri 04:49:08 PM 49.2210 -1.9080 277° West 468 539 38,000  Level FlightAware ADS-B
Fri 04:49:52 PM 49.2310 -2.0520 276° West 469 540 38,000  Level FlightAware ADS-B
Fri 04:50:28 PM 49.2400 -2.1730 277° West 470 541 38,000  Level FlightAware ADS-B
Fri 04:51:08 PM 49.2490 -2.3030 276° West 470 541 38,000  Level FlightAware ADS-B
Fri 04:51:46 PM 49.2580 -2.4324 276° West 474 545 38,000  Level FlightAware UK
Fri 04:51:52 PM 49.2590 -2.4520 276° West 473 544 38,000  Level FlightAware ADS-B
Fri 04:52:22 PM 49.2660 -2.5507 276° West 476 548 38,000  Level FlightAware UK
Fri 04:52:32 PM 49.2680 -2.5840 276° West 472 543 38,000  Level FlightAware ADS-B
Fri 04:53:14 PM 49.2770 -2.7210 276° West 474 545 38,000  Level FlightAware ADS-B
Fri 04:53:52 PM 49.2849 -2.8490 276° West 476 548 38,000  Level FlightAware UK
Fri 04:53:54 PM 49.2860 -2.8560 276° West 474 545 38,000  Level FlightAware ADS-B
Fri 04:54:28 PM 49.2926 -2.9683 276° West 476 548 38,000  Level FlightAware UK
Fri 04:54:37 PM 49.2950 -2.9970 276° West 474 545 38,000  Level FlightAware ADS-B
Fri 04:55:13 PM 49.3020 -3.1170 275° West 475 547 38,000  Level FlightAware ADS-B
Fri 04:55:53 PM 49.3100 -3.2480 275° West 475 547 38,000  Level FlightAware ADS-B
Fri 04:56:33 PM 49.3184 -3.3882 275° West 474 545 38,000  Level FlightAware UK
Fri 04:56:37 PM 49.3190 -3.3980 275° West 473 544 38,000  Level FlightAware ADS-B
Fri 04:57:09 PM 49.3260 -3.5050 276° West 474 545 38,000  Level FlightAware ADS-B
Fri 04:57:39 PM 49.3313 -3.6077 276° West 474 545 38,000  Level FlightAware UK
Fri 04:57:55 PM 49.3340 -3.6580 276° West 475 547 38,000  Level FlightAware ADS-B
Fri 04:58:35 PM 49.3420 -3.7920 275° West 476 548 38,000  Level FlightAware ADS-B
Fri 04:59:09 PM 49.3481 -3.9091 275° West 474 545 38,000  Level FlightAware UK
Fri 04:59:15 PM 49.3490 -3.9290 275° West 477 549 38,000  Level FlightAware ADS-B
Fri 04:59:59 PM 49.3580 -4.0780 275° West 479 551 38,000  Level FlightAware ADS-B
Fri 05:00:43 PM 49.3650 -4.2240 274° West 479 551 38,000  Level FlightAware ADS-B
Fri 05:01:15 PM 49.3711 -4.3344 274° West 476 548 38,000  Level FlightAware UK
Fri 05:01:23 PM 49.3720 -4.3600 274° West 480 552 38,000  Level FlightAware ADS-B
Fri 05:01:59 PM 49.3780 -4.4810 274° West 480 552 38,000  Level FlightAware ADS-B
Fri 05:02:39 PM 49.3850 -4.6160 275° West 480 552 38,000  Level FlightAware ADS-B
Fri 05:03:19 PM 49.3910 -4.7470 274° West 480 552 38,000  Level FlightAware ADS-B
Fri 05:03:57 PM 49.3979 -4.8826 274° West 476 548 38,000  Level FlightAware UK
Fri 05:04:01 PM 49.3980 -4.8960 274° West 481 554 38,000  Level FlightAware ADS-B
Fri 05:04:33 PM 49.4034 -5.0050 274° West 476 548 38,000  Level FlightAware UK
Fri 05:04:41 PM 49.4050 -5.0320 274° West 481 554 38,000  Level FlightAware ADS-B
Fri 05:05:21 PM 49.4100 -5.1660 273° West 481 554 38,000  Level FlightAware ADS-B
Fri 05:06:01 PM 49.4160 -5.3020 274° West 481 554 38,000  Level FlightAware ADS-B
Fri 05:06:39 PM 49.4220 -5.4325 274° West 476 548 38,000  Level FlightAware UK
Fri 05:06:41 PM 49.4220 -5.4380 274° West 481 554 38,000  Level FlightAware ADS-B
Fri 05:07:27 PM 49.4290 -5.5940 274° West 482 555 38,000  Level FlightAware ADS-B
Fri 05:08:09 PM 49.4345 -5.7391 274° West 476 548 38,000  Level FlightAware UK
Fri 05:08:12 PM 49.4350 -5.7480 274° West 481 554 38,000  Level FlightAware ADS-B
Fri 05:08:52 PM 49.4400 -5.8850 273° West 482 555 38,000  Level FlightAware ADS-B
Fri 05:09:28 PM 49.4440 -6.0060 273° West 483 556 38,000  Level FlightAware ADS-B
Fri 05:10:09 PM 49.4490 -6.1490 273° West 482 555 38,000  Level FlightAware ADS-B
Fri 05:10:45 PM 49.4540 -6.2712 273° West 476 548 38,000  Level FlightAware UK
Fri 05:10:53 PM 49.4550 -6.3000 273° West 484 557 38,000  Level FlightAware ADS-B
Fri 05:11:32 PM 49.4590 -6.4280 273° West 484 557 38,000  Level FlightAware ADS-B
Fri 05:12:15 PM 49.4639 -6.5801 273° West 476 548 38,000  Level FlightAware UK
Fri 05:12:16 PM 49.4640 -6.5830 273° West 485 558 38,000  Level FlightAware ADS-B
Fri 05:12:56 PM 49.4680 -6.7200 273° West 486 559 38,000  Level FlightAware ADS-B
Fri 05:13:39 PM 49.4730 -6.8700 273° West 485 558 38,000  Level FlightAware ADS-B
Fri 05:14:20 PM 49.4767 -7.0133 273° West 476 548 38,000  Level FlightAware UK
Fri 05:14:21 PM 49.4770 -7.0160 273° West 484 557 38,000  Level FlightAware ADS-B
Fri 05:14:58 PM 49.4800 -7.1380 272° West 482 555 38,000  Level FlightAware ADS-B
Fri 05:15:44 PM 49.4840 -7.2950 272° West 484 557 38,000  Level FlightAware ADS-B
Fri 05:16:20 PM 49.4875 -7.4241 272° West 478 550 38,000  Level FlightAware UK
Fri 05:16:24 PM 49.4880 -7.4340 272° West 485 558 38,000 240 Level FlightAware ADS-B
Fri 05:17:10 PM 49.4910 -7.5920 272° West 484 557 38,200 419 Climbing FlightAware ADS-B
Fri 05:17:50 PM 49.4946 -7.7331 272° West 478 550 38,600 750 Climbing FlightAware UK
Fri 05:17:50 PM 49.4940 -7.7290 272° West 486 559 38,700 600 Climbing FlightAware ADS-B
Fri 05:18:20 PM 49.4970 -7.8363 272° West 480 552 38,900 500 Climbing FlightAware UK
Fri 05:18:26 PM 49.4970 -7.8530 272° West 490 564 39,000 1,021 Climbing FlightAware ADS-B
Fri 05:19:07 PM 49.5010 -7.9980 272° West 482 555 39,700 698 Climbing FlightAware ADS-B
Fri 05:19:52 PM 49.5150 -8.1470 278° West 476 548 40,000 228 Climbing FlightAware ADS-B
Fri 05:20:26 PM 49.5269 -8.2637 278° West 480 552 40,000  Level FlightAware UK
Fri 05:20:32 PM 49.5290 -8.2810 278° West 478 550 40,000  Level FlightAware ADS-B
Fri 05:21:16 PM 49.5430 -8.4270 278° West 477 549 40,000  Level FlightAware ADS-B
Fri 05:21:56 PM 49.5565 -8.5652 278° West 480 552 40,000  Level FlightAware UK
Fri 05:21:56 PM 49.5560 -8.5620 278° West 478 550 40,000  Level FlightAware ADS-B
Fri 05:22:26 PM 49.5663 -8.6660 278° West 480 552 40,000  Level FlightAware UK
Fri 05:22:40 PM 49.5710 -8.7110 278° West 479 551 40,000  Level FlightAware ADS-B
Fri 05:23:14 PM 49.5820 -8.8250 279° West 478 550 40,000  Level FlightAware ADS-B
Fri 05:23:56 PM 49.5950 -8.9660 278° West 478 550 40,000  Level FlightAware ADS-B
Fri 05:24:33 PM 49.6060 -9.0890 278° West 482 555 40,000  Level FlightAware ADS-B
Fri 05:25:13 PM 49.6190 -9.2280 278° West 483 556 40,000  Level FlightAware ADS-B
Fri 05:25:53 PM 49.6320 -9.3650 278° West 483 556 40,000  Level FlightAware ADS-B
Fri 05:26:32 PM 49.6430 -9.4940 278° West 483 556 40,000  Level FlightAware ADS-B
Fri 05:27:20 PM 49.6570 -9.6560 278° West 479 551 40,000  Level FlightAware ADS-B
Fri 05:27:56 PM 49.6680 -9.7800 278° West 477 549 40,000  Level FlightAware ADS-B
Fri 05:28:40 PM 49.6810 -9.9250 278° West 476 548 40,000  Level FlightAware ADS-B
Fri 05:29:20 PM 49.6900 -10.0400 277° West 476 548 40,000  Level FlightAware ADS-B
Fri 05:30:08 PM 49.7010 -10.1780 277° West 476 548 40,000  Level FlightAware ADS-B
Fri 05:30:57 PM 49.7120 -10.3190 277° West 476 548 40,000  Level FlightAware ADS-B
Fri 05:31:34 PM 49.7200 -10.4250 277° West 476 548 40,000  Level FlightAware ADS-B
Fri 05:32:26 PM 49.7410 -10.6760 277° West 477 549 40,000  Level FlightAware ADS-B
Fri 05:33:02 PM 49.7480 -10.7800 276° West 477 549 40,000  Level FlightAware ADS-B
Fri 05:33:51 PM 49.7580 -10.9220 276° West 477 549 40,000  Level FlightAware ADS-B
Fri 05:34:27 PM 49.7650 -11.0260 276° West 477 549 40,000  Level FlightAware ADS-B
Fri 05:35:16 PM 49.7750 -11.1670 276° West 477 549 40,000  Level FlightAware ADS-B
Fri 05:35:53 PM 49.7820 -11.2740 276° West 477 549 40,000  Level FlightAware ADS-B
Fri 05:36:54 PM 49.7940 -11.4500 276° West 477 549 40,000  Level FlightAware ADS-B
Fri 05:37:30 PM 49.8010 -11.5540 276° West 477 549 40,000  Level FlightAware ADS-B
Fri 05:38:06 PM 49.8080 -11.6580 276° West 477 549 40,000  Level FlightAware ADS-B
Fri 05:39:18 PM 49.8220 -11.8670 276° West 477 549 40,000  Level FlightAware ADS-B
Fri 05:40:06 PM 49.8310 -12.0050 276° West 477 549 40,000  Level FlightAware ADS-B
Fri 05:40:43 PM 49.8390 -12.1120 277° West 477 549 40,000  Level FlightAware ADS-B
Fri 05:41:33 PM 49.8480 -12.2570 276° West 477 549 40,000  Level FlightAware ADS-B
Fri 05:44:00 PM 50.0219 -12.6607 304° West  Level Estimated
Fri 05:45:00 PM 50.0925 -12.8263 304° West  Level Estimated
Fri 05:46:00 PM 50.1628 -12.9923 304° West  Level Estimated
Fri 05:47:00 PM 50.2329 -13.1589 303° West  Level Estimated
Fri 05:48:00 PM 50.3027 -13.3260 303° West  Level Estimated
Fri 05:49:00 PM 50.3724 -13.4935 303° West  Level Estimated
Fri 05:50:00 PM 50.4417 -13.6616 303° West  Level Estimated
Fri 05:51:00 PM 50.5109 -13.8301 303° West  Level Estimated
Fri 05:52:00 PM 50.5798 -13.9992 303° West  Level Estimated
Fri 05:53:00 PM 50.6484 -14.1687 303° West  Level Estimated
Fri 05:54:00 PM 50.7168 -14.3387 302° West  Level Estimated
Fri 05:55:00 PM 50.7850 -14.5092 302° West  Level Estimated
Fri 05:56:00 PM 50.8529 -14.6802 302° West  Level Estimated
Fri 05:57:00 PM 50.9205 -14.8517 302° West  Level Estimated
Fri 05:58:00 PM 50.9879 -15.0238 302° West  Level Estimated
Fri 05:59:00 PM 51.0550 -15.1963 302° West  Level Estimated
Fri 06:00:00 PM 51.1219 -15.3693 302° West  Level Estimated
Fri 06:01:00 PM 51.1886 -15.5428 302° West  Level Estimated
Fri 06:02:00 PM 51.2550 -15.7168 301° West  Level Estimated
Fri 06:03:00 PM 51.3211 -15.8913 301° West  Level Estimated
Fri 06:04:00 PM 51.3869 -16.0663 301° West  Level Estimated
Fri 06:05:00 PM 51.4525 -16.2418 301° West  Level Estimated
Fri 06:06:00 PM 51.5179 -16.4179 301° West  Level Estimated
Fri 06:07:00 PM 51.5829 -16.5944 301° West  Level Estimated
Fri 06:08:00 PM 51.6477 -16.7714 301° West  Level Estimated
Fri 06:09:00 PM 51.7123 -16.9490 300° West  Level Estimated
Fri 06:10:00 PM 51.7765 -17.1270 300° West  Level Estimated
Fri 06:11:00 PM 51.8405 -17.3056 300° West  Level Estimated
Fri 06:12:00 PM 51.9043 -17.4846 300° West  Level Estimated
Fri 06:13:00 PM 51.9677 -17.6642 300° West  Level Estimated
Fri 06:14:00 PM 52.0309 -17.8443 300° West  Level Estimated
Fri 06:15:00 PM 52.0938 -18.0249 300° West  Level Estimated
Fri 06:16:00 PM 52.1564 -18.2059 299° West  Level Estimated
Fri 06:17:00 PM 52.2188 -18.3876 299° West  Level Estimated
Fri 06:18:00 PM 52.2809 -18.5697 299° West  Level Estimated
Fri 06:19:00 PM 52.3427 -18.7523 299° West  Level Estimated
Fri 06:20:00 PM 52.4042 -18.9354 299° West  Level Estimated
Fri 06:21:00 PM 52.4654 -19.1190 299° West  Level Estimated
Fri 06:22:00 PM 52.5263 -19.3032 299° West  Level Estimated
Fri 06:22:00 PM 50.0000 -20.0000 265° West 472 543 40,000  Level ETMS Enhanced Traffic Management System
Fri 06:23:00 PM 52.5885 -19.4924 298° West  Level Estimated
Fri 06:24:00 PM 52.6503 -19.6821 298° West  Level Estimated
Fri 06:25:00 PM 52.7118 -19.8724 298° West  Level Estimated
Fri 06:26:00 PM 52.7731 -20.0632 298° West  Level Estimated
Fri 06:27:00 PM 52.8340 -20.2546 298° West  Level Estimated
Fri 06:28:00 PM 49.8842 -21.8276 264° West 472 543 40,000  Level FlightAware Transoceanic
Fri 06:29:00 PM 49.8695 -22.0301 264° West 472 543 40,000  Level FlightAware Transoceanic
Fri 06:30:00 PM 49.8545 -22.2325 263° West 472 543 40,000  Level FlightAware Transoceanic
Fri 06:31:00 PM 49.8392 -22.4348 263° West 472 543 40,000  Level FlightAware Transoceanic
Fri 06:32:00 PM 49.8235 -22.6369 263° West 472 543 40,000  Level FlightAware Transoceanic
Fri 06:33:00 PM 49.8074 -22.8389 263° West 472 543 40,000  Level FlightAware Transoceanic
Fri 06:34:00 PM 49.7910 -23.0407 263° West 472 543 40,000  Level FlightAware Transoceanic
Fri 06:35:00 PM 49.7743 -23.2425 263° West 472 543 40,000  Level FlightAware Transoceanic
Fri 06:36:00 PM 49.7572 -23.4440 262° West 472 543 40,000  Level FlightAware Transoceanic
Fri 06:37:00 PM 49.7397 -23.6455 262° West 472 543 40,000  Level FlightAware Transoceanic
Fri 06:38:00 PM 49.7219 -23.8467 262° West 472 543 40,000  Level FlightAware Transoceanic
Fri 06:39:00 PM 49.7038 -24.0479 262° West 472 543 40,000  Level FlightAware Transoceanic
Fri 06:40:00 PM 49.6853 -24.2488 262° West 472 543 40,000  Level FlightAware Transoceanic
Fri 06:41:00 PM 49.6664 -24.4497 262° West 472 543 40,000  Level FlightAware Transoceanic
Fri 06:42:00 PM 49.6473 -24.6504 262° West 472 543 40,000  Level FlightAware Transoceanic
Fri 06:43:00 PM 49.6277 -24.8509 261° West 472 543 40,000  Level FlightAware Transoceanic
Fri 06:44:00 PM 49.6078 -25.0512 261° West 472 543 40,000  Level FlightAware Transoceanic
Fri 06:45:00 PM 49.5876 -25.2514 261° West 472 543 40,000  Level FlightAware Transoceanic
Fri 06:46:00 PM 49.5670 -25.4514 261° West 472 543 40,000  Level FlightAware Transoceanic
Fri 06:47:00 PM 49.5461 -25.6513 261° West 472 543 40,000  Level FlightAware Transoceanic
Fri 06:48:00 PM 49.5249 -25.8510 261° West 472 543 40,000  Level FlightAware Transoceanic
Fri 06:49:00 PM 49.5033 -26.0504 260° West 472 543 40,000  Level FlightAware Transoceanic
Fri 06:50:00 PM 49.4813 -26.2498 260° West 472 543 40,000  Level FlightAware Transoceanic
Fri 06:51:00 PM 49.4590 -26.4489 260° West 472 543 40,000  Level FlightAware Transoceanic
Fri 06:52:00 PM 49.4364 -26.6479 260° West 472 543 40,000  Level FlightAware Transoceanic
Fri 06:53:00 PM 49.4134 -26.8466 260° West 472 543 40,000  Level FlightAware Transoceanic
Fri 06:54:00 PM 49.3901 -27.0452 260° West 472 543 40,000  Level FlightAware Transoceanic
Fri 06:55:00 PM 49.3665 -27.2436 260° West 472 543 40,000  Level FlightAware Transoceanic
Fri 06:56:00 PM 49.3425 -27.4419 259° West 472 543 40,000  Level FlightAware Transoceanic
Fri 06:57:00 PM 49.3181 -27.6399 259° West 472 543 40,000  Level FlightAware Transoceanic
Fri 06:58:00 PM 49.2935 -27.8377 259° West 472 543 40,000  Level FlightAware Transoceanic
Fri 06:59:00 PM 49.2685 -28.0353 259° West 472 543 40,000  Level FlightAware Transoceanic
Fri 07:00:00 PM 49.2431 -28.2327 259° West 472 543 40,000  Level FlightAware Transoceanic
Fri 07:01:00 PM 49.2174 -28.4299 259° West 472 543 40,000  Level FlightAware Transoceanic
Fri 07:02:00 PM 49.1914 -28.6269 259° West 472 543 40,000  Level FlightAware Transoceanic
Fri 07:03:00 PM 49.1651 -28.8237 258° West 472 543 40,000  Level FlightAware Transoceanic
Fri 07:04:00 PM 49.1384 -29.0203 258° West 472 543 40,000  Level FlightAware Transoceanic
Fri 07:05:00 PM 49.1114 -29.2167 258° West 472 543 40,000  Level FlightAware Transoceanic
Fri 07:06:00 PM 49.0840 -29.4128 258° West 472 543 40,000  Level FlightAware Transoceanic
Fri 07:07:00 PM 49.0564 -29.6088 258° West 472 543 40,000  Level FlightAware Transoceanic
Fri 07:08:00 PM 49.0283 -29.8045 258° West 472 543 40,000 29 Level FlightAware Transoceanic
Fri 07:09:00 PM 49.0001 -29.9991 258° West  Level FlightAware Approximate
Fri 07:10:00 PM 48.9725 -30.1939 258° West  Level FlightAware Approximate
Fri 07:11:00 PM 48.9710 -30.1925 257° West  Level FlightAware Approximate
Fri 07:12:00 PM 48.9413 -30.3864 257° West  Level FlightAware Approximate
Fri 07:13:00 PM 48.9114 -30.5801 257° West  Level FlightAware Approximate
Fri 07:14:00 PM 48.8811 -30.7736 257° West  Level FlightAware Approximate
Fri 07:15:00 PM 48.8505 -30.9668 257° West  Level FlightAware Approximate
Fri 07:16:00 PM 48.8196 -31.1598 256° West  Level FlightAware Approximate
Fri 07:17:00 PM 48.7883 -31.3525 256° West  Level FlightAware Approximate
Fri 07:18:00 PM 48.7567 -31.5450 256° West  Level FlightAware Approximate
Fri 07:19:00 PM 48.7249 -31.7373 256° West  Level FlightAware Approximate
Fri 07:20:00 PM 48.6926 -31.9293 256° West  Level FlightAware Approximate
Fri 07:21:00 PM 48.6601 -32.1211 256° West  Level FlightAware Approximate
Fri 07:22:00 PM 48.6273 -32.3126 256° West  Level FlightAware Approximate
Fri 07:23:00 PM 48.5941 -32.5039 255° West  Level FlightAware Approximate
Fri 07:24:00 PM 48.5606 -32.6950 255° West  Level FlightAware Approximate
Fri 07:25:00 PM 48.5269 -32.8857 255° West  Level FlightAware Approximate
Fri 07:26:00 PM 48.4927 -33.0762 255° West  Level FlightAware Approximate
Fri 07:27:00 PM 48.4583 -33.2665 255° West  Level FlightAware Approximate
Fri 07:28:00 PM 48.4236 -33.4565 255° West  Level FlightAware Approximate
Fri 07:29:00 PM 48.3885 -33.6462 255° West  Level FlightAware Approximate
Fri 07:30:00 PM 48.3532 -33.8357 254° West  Level FlightAware Approximate
Fri 07:31:00 PM 48.3175 -34.0249 254° West  Level FlightAware Approximate
Fri 07:32:00 PM 48.2815 -34.2139 254° West  Level FlightAware Approximate
Fri 07:33:00 PM 48.2453 -34.4026 254° West  Level FlightAware Approximate
Fri 07:34:00 PM 48.2086 -34.5910 254° West  Level FlightAware Approximate
Fri 07:35:00 PM 48.1717 -34.7791 254° West  Level FlightAware Approximate
Fri 07:36:00 PM 48.1345 -34.9670 254° West  Level FlightAware Approximate
Fri 07:37:00 PM 48.0970 -35.1546 253° West  Level FlightAware Approximate
Fri 07:38:00 PM 48.0592 -35.3419 253° West  Level FlightAware Approximate
Fri 07:39:00 PM 48.0211 -35.5289 253° West  Level FlightAware Approximate
Fri 07:40:00 PM 47.9827 -35.7157 253° West  Level FlightAware Approximate
Fri 07:41:00 PM 47.9439 -35.9022 253° West  Level FlightAware Approximate
Fri 07:42:00 PM 47.9049 -36.0884 253° West  Level FlightAware Approximate
Fri 07:43:00 PM 47.8656 -36.2743 253° West  Level FlightAware Approximate
Fri 07:44:00 PM 47.8259 -36.4600 252° West  Level FlightAware Approximate
Fri 07:45:00 PM 47.7860 -36.6454 252° West  Level FlightAware Approximate
Fri 07:46:00 PM 47.7458 -36.8304 252° West  Level FlightAware Approximate
Fri 07:47:00 PM 47.7052 -37.0152 252° West  Level FlightAware Approximate
Fri 07:48:00 PM 47.6644 -37.1997 252° West  Level FlightAware Approximate
Fri 07:49:00 PM 47.6233 -37.3839 252° West  Level FlightAware Approximate
Fri 07:50:00 PM 47.5819 -37.5679 252° West  Level FlightAware Approximate
Fri 07:51:00 PM 47.5402 -37.7515 251° West  Level FlightAware Approximate
Fri 07:52:00 PM 47.4982 -37.9348 251° West  Level FlightAware Approximate
Fri 07:53:00 PM 47.4559 -38.1179 251° West  Level FlightAware Approximate
Fri 07:54:00 PM 47.4133 -38.3006 251° West  Level FlightAware Approximate
Fri 07:55:00 PM 47.3705 -38.4831 251° West  Level FlightAware Approximate
Fri 07:56:00 PM 47.3273 -38.6652 251° West  Level FlightAware Approximate
Fri 07:57:00 PM 47.2839 -38.8471 251° West  Level FlightAware Approximate
Fri 07:58:00 PM 47.2401 -39.0286 251° West  Level FlightAware Approximate
Fri 07:59:00 PM 47.1961 -39.2099 250° West  Level FlightAware Approximate
Fri 08:00:00 PM 47.1518 -39.3908 250° West  Level FlightAware Approximate
Fri 08:01:00 PM 47.1072 -39.5715 250° West  Level FlightAware Approximate
Fri 08:02:00 PM 47.0623 -39.7518 250° West  Level FlightAware Approximate
Fri 08:03:00 PM 47.0172 -39.9319 250° West  Level FlightAware Approximate
Fri 08:04:00 PM 46.9817 -40.1160 257° West  Level FlightAware Approximate
Fri 08:05:00 PM 46.9519 -40.3026 257° West  Level FlightAware Approximate
Fri 08:06:00 PM 46.9218 -40.4889 257° West  Level FlightAware Approximate
Fri 08:07:00 PM 46.8915 -40.6750 257° West  Level FlightAware Approximate
Fri 08:08:00 PM 46.8608 -40.8610 257° West  Level FlightAware Approximate
Fri 08:09:00 PM 46.8298 -41.0467 256° West  Level FlightAware Approximate
Fri 08:10:00 PM 46.7985 -41.2322 256° West  Level FlightAware Approximate
Fri 08:11:00 PM 46.7670 -41.4175 256° West  Level FlightAware Approximate
Fri 08:12:00 PM 46.7351 -41.6025 256° West  Level FlightAware Approximate
Fri 08:13:00 PM 46.7029 -41.7874 256° West  Level FlightAware Approximate
Fri 08:14:00 PM 46.6705 -41.9720 256° West  Level FlightAware Approximate
Fri 08:15:00 PM 46.6377 -42.1564 256° West  Level FlightAware Approximate
Fri 08:16:00 PM 46.6047 -42.3406 255° West  Level FlightAware Approximate
Fri 08:17:00 PM 46.5713 -42.5245 255° West  Level FlightAware Approximate
Fri 08:18:00 PM 46.5406 -42.7093 257° West  Level FlightAware Approximate
Fri 08:19:00 PM 46.5102 -42.8941 257° West  Level FlightAware Approximate
Fri 08:20:00 PM 46.4794 -43.0787 256° West  Level FlightAware Approximate
Fri 08:21:00 PM 46.4483 -43.2631 256° West  Level FlightAware Approximate
Fri 08:22:00 PM 46.4169 -43.4472 256° West  Level FlightAware Approximate
Fri 08:23:00 PM 46.3852 -43.6311 256° West  Level FlightAware Approximate
Fri 08:24:00 PM 46.3532 -43.8149 256° West  Level FlightAware Approximate
Fri 08:25:00 PM 46.3191 -43.9977 255° West  Level FlightAware Approximate
Fri 08:26:00 PM 46.2845 -44.1802 255° West  Level FlightAware Approximate
Fri 08:27:00 PM 46.2495 -44.3624 255° West  Level FlightAware Approximate
Fri 08:28:00 PM 46.2143 -44.5444 254° West  Level FlightAware Approximate
Fri 08:29:00 PM 46.1788 -44.7262 254° West  Level FlightAware Approximate
Fri 08:30:00 PM 46.1431 -44.9078 254° West  Level FlightAware Approximate
Fri 08:31:00 PM 46.1070 -45.0891 254° West  Level FlightAware Approximate
Fri 08:32:00 PM 46.0706 -45.2702 254° West  Level FlightAware Approximate
Fri 08:33:00 PM 46.0340 -45.4510 254° West  Level FlightAware Approximate
Fri 08:34:00 PM 45.9971 -45.6316 254° West  Level FlightAware Approximate
Fri 08:35:00 PM 45.9599 -45.8120 254° West  Level FlightAware Approximate
Fri 08:36:00 PM 45.9224 -45.9921 253° West  Level FlightAware Approximate
Fri 08:37:00 PM 45.8846 -46.1720 253° West  Level FlightAware Approximate
Fri 08:38:00 PM 45.8465 -46.3516 253° West  Level FlightAware Approximate
Fri 08:39:00 PM 45.8082 -46.5310 253° West  Level FlightAware Approximate
Fri 08:40:00 PM 45.7696 -46.7101 253° West  Level FlightAware Approximate
Fri 08:41:00 PM 45.7307 -46.8890 253° West  Level FlightAware Approximate
Fri 08:42:00 PM 45.6915 -47.0676 253° West  Level FlightAware Approximate
Fri 08:43:00 PM 45.6520 -47.2460 252° West  Level FlightAware Approximate
Fri 08:44:00 PM 45.6123 -47.4241 252° West  Level FlightAware Approximate
Fri 08:45:00 PM 45.5723 -47.6020 252° West  Level FlightAware Approximate
Fri 08:46:00 PM 45.5320 -47.7796 252° West  Level FlightAware Approximate
Fri 08:47:00 PM 45.4915 -47.9570 252° West  Level FlightAware Approximate
Fri 08:48:00 PM 45.4506 -48.1341 252° West  Level FlightAware Approximate
Fri 08:48:54 PM 44.9833 -50.0500 251° West 490 564 43,000  Level Gander Center
Fri 08:49:00 PM 45.4095 -48.3110 252° West  Level FlightAware Approximate
Fri 08:49:54 PM 44.9667 -50.2333 263° West 490 564 43,000  Level Gander Center
Fri 08:50:00 PM 45.3681 -48.4876 252° West  Level FlightAware Approximate
Fri 08:50:54 PM 44.9500 -50.4000 262° West 490 564 43,000  Level Gander Center
Fri 08:51:00 PM 45.3265 -48.6639 251° West  Level FlightAware Approximate
Fri 08:51:54 PM 44.9333 -50.6000 263° West 490 564 43,000  Level Gander Center
Fri 08:52:00 PM 45.2846 -48.8400 251° West  Level FlightAware Approximate
Fri 08:52:54 PM 44.9333 -50.7833 270° West 490 564 43,000  Level Gander Center
Fri 08:53:00 PM 45.2422 -49.0138 251° West  Level FlightAware Approximate
Fri 08:53:54 PM 44.9167 -50.9833 263° West 490 564 43,000  Level Gander Center
Fri 08:54:00 PM 45.1996 -49.1873 251° West  Level FlightAware Approximate
Fri 08:54:54 PM 44.9000 -51.1667 263° West 480 552 43,000  Level Gander Center
Fri 08:55:54 PM 44.8833 -51.3333 262° West 480 552 43,000  Level Gander Center
Fri 08:56:54 PM 44.8667 -51.5500 264° West 490 564 43,000  Level Gander Center
Fri 08:57:54 PM 44.8667 -51.7167 270° West 480 552 43,000  Level Gander Center
Fri 08:58:54 PM 44.8500 -51.9167 263° West 490 564 43,000  Level Gander Center
Fri 08:59:54 PM 44.8333 -52.1000 263° West 480 552 43,000  Level Gander Center
Fri 09:00:54 PM 44.8167 -52.3000 263° West 480 552 43,000  Level Gander Center
Fri 09:01:54 PM 44.8000 -52.4833 263° West 490 564 43,000  Level Gander Center
Fri 09:02:54 PM 44.8000 -52.6833 270° West 480 552 43,000  Level Gander Center
Fri 09:03:54 PM 44.7833 -52.8500 262° West 480 552 43,000  Level Gander Center
Fri 09:04:54 PM 44.7667 -53.0333 263° West 480 552 43,000  Level Gander Center
Fri 09:05:54 PM 44.7500 -53.2333 263° West 470 541 43,000  Level Gander Center
Fri 09:06:54 PM 44.7333 -53.4167 263° West 480 552 43,000  Level Gander Center
Fri 09:07:54 PM 44.7167 -53.6000 263° West 480 552 43,000  Level Gander Center
Fri 09:08:54 PM 44.7000 -53.7667 262° West 480 552 43,000  Level Gander Center
Fri 09:09:54 PM 44.6833 -53.9667 263° West 470 541 43,000  Level Gander Center
Fri 09:10:54 PM 44.6667 -54.1500 263° West 480 552 43,000  Level Gander Center
Fri 09:11:54 PM 44.6500 -54.3167 262° West 470 541 43,000  Level Gander Center
Fri 09:12:54 PM 44.6333 -54.5167 263° West 470 541 43,000  Level Gander Center
Fri 09:18:24 PM 44.5450 -55.5610 263° West 465 535 43,000  Level FlightAware ADS-B
Fri 09:19:21 PM 44.5280 -55.7140 261° West 461 531 43,000  Level FlightAware ADS-B
Fri 09:20:10 PM 44.5140 -55.8370 261° West 461 531 43,000  Level FlightAware ADS-B
Fri 09:20:48 PM 44.4900 -55.9820 257° West 459 528 43,000  Level FlightAware ADS-B
Fri 09:21:18 PM 44.4770 -56.0580 257° West 459 528 43,000  Level FlightAware ADS-B
Fri 09:22:07 PM 44.4570 -56.1780 257° West 459 528 43,000  Level FlightAware ADS-B
Fri 09:22:43 PM 44.4430 -56.2670 258° West 459 528 43,000  Level FlightAware ADS-B
Fri 09:23:19 PM 44.4280 -56.3560 257° West 459 528 43,000  Level FlightAware ADS-B
Fri 09:24:37 PM 44.3860 -56.6310 258° West 466 536 43,000  Level FlightAware ADS-B
Fri 09:25:16 PM 44.3640 -56.7650 257° West 463 533 43,000  Level FlightAware ADS-B
Fri 09:25:58 PM 44.3440 -56.8870 257° West 463 533 43,000  Level FlightAware ADS-B
Fri 09:26:40 PM 44.3240 -57.0060 257° West 463 533 43,000  Level FlightAware ADS-B
Fri 09:27:19 PM 44.3070 -57.1020 256° West 463 533 43,000  Level FlightAware ADS-B
Fri 09:28:02 PM 44.2840 -57.2450 257° West 464 534 43,000  Level FlightAware ADS-B
Fri 09:28:36 PM 44.2670 -57.3430 256° West 460 529 43,000  Level FlightAware ADS-B
Fri 09:29:22 PM 44.2450 -57.4750 257° West 453 521 43,000  Level FlightAware ADS-B
Fri 09:30:02 PM 44.2250 -57.5880 256° West 456 525 43,000  Level FlightAware ADS-B
Fri 09:30:46 PM 44.2030 -57.7140 256° West 455 524 43,000  Level FlightAware ADS-B
Fri 09:31:26 PM 44.1830 -57.8310 257° West 456 525 43,000  Level FlightAware ADS-B
Fri 09:32:11 PM 44.1620 -57.9530 257° West 451 519 43,000  Level FlightAware ADS-B
Fri 09:32:50 PM 44.1410 -58.0660 256° West 456 525 43,000  Level FlightAware ADS-B
Fri 09:33:35 PM 44.1190 -58.1920 256° West 455 524 43,000  Level FlightAware ADS-B
Fri 09:34:14 PM 44.0990 -58.3030 256° West 458 527 43,000  Level FlightAware ADS-B
Fri 09:34:56 PM 44.0770 -58.4250 256° West 461 531 43,000  Level FlightAware ADS-B
Fri 09:35:39 PM 44.0550 -58.5480 256° West 460 529 43,000  Level FlightAware ADS-B
Fri 09:36:20 PM 44.0330 -58.6650 255° West 459 528 43,000  Level FlightAware ADS-B
Fri 09:36:58 PM 44.0140 -58.7710 256° West 457 526 43,000  Level FlightAware ADS-B
Fri 09:37:44 PM 43.9890 -58.9060 256° West 459 528 43,000  Level FlightAware ADS-B
Fri 09:38:28 PM 43.9660 -59.0290 255° West 461 531 43,000  Level FlightAware ADS-B
Fri 09:39:06 PM 43.9450 -59.1380 255° West 459 528 43,000  Level FlightAware ADS-B
Fri 09:39:52 PM 43.9210 -59.2680 256° West 462 532 43,000  Level FlightAware ADS-B
Fri 09:40:18 PM 43.9070 -59.3400 255° West 461 531 43,000  Level FlightAware ADS-B
Fri 09:41:08 PM 43.8800 -59.4840 255° West 462 532 43,000  Level FlightAware ADS-B
Fri 09:42:02 PM 43.8520 -59.6300 255° West 462 532 43,000  Level FlightAware ADS-B
Fri 09:42:34 PM 43.8320 -59.7310 255° West 460 529 43,000  Level FlightAware ADS-B
Fri 09:43:16 PM 43.8100 -59.8470 255° West 461 531 43,000  Level FlightAware ADS-B
Fri 09:44:02 PM 43.7830 -59.9800 254° West 462 532 43,000  Level FlightAware ADS-B
Fri 09:45:01 PM 43.7540 -60.1260 255° West 460 529 43,000  Level FlightAware ADS-B
Fri 09:45:37 PM 43.7360 -60.2120 254° West 460 529 43,000  Level FlightAware ADS-B
Fri 09:46:25 PM 43.7120 -60.3280 254° West 460 529 43,000  Level FlightAware ADS-B
Fri 09:47:01 PM 43.6940 -60.4150 254° West 460 529 43,000  Level FlightAware ADS-B
Fri 09:47:37 PM 43.6760 -60.5010 254° West 460 529 43,000  Level FlightAware ADS-B
Fri 09:48:25 PM 43.6520 -60.6160 254° West 460 529 43,000  Level FlightAware ADS-B
Fri 09:49:01 PM 43.6340 -60.7030 254° West 460 529 43,000  Level FlightAware ADS-B
Fri 09:49:37 PM 43.6160 -60.7890 254° West 460 529 43,000  Level FlightAware ADS-B
Fri 09:50:13 PM 43.5980 -60.8760 254° West 460 529 43,000  Level FlightAware ADS-B
Fri 09:51:01 PM 43.5740 -60.9910 254° West 460 529 43,000  Level FlightAware ADS-B
Fri 09:51:37 PM 43.5560 -61.0770 254° West 460 529 43,000  Level FlightAware ADS-B
Fri 09:52:25 PM 43.5320 -61.1930 254° West 460 529 43,000  Level FlightAware ADS-B
Fri 09:53:02 PM 43.5140 -61.2810 254° West 460 529 43,000  Level FlightAware ADS-B
Fri 09:53:50 PM 43.4900 -61.3960 254° West 460 529 43,000  Level FlightAware ADS-B
Fri 09:54:54 PM 43.4000 -61.7833 254° West 460 529 43,000  Level Gander Center
Fri 09:55:54 PM 43.3667 -61.9667 256° West 460 529 43,000  Level Gander Center
Fri 09:56:54 PM 43.3333 -62.1000 251° West 460 529 43,000  Level Gander Center
Fri 09:57:54 PM 43.2833 -62.2833 250° West 460 529 43,000  Level Gander Center
Fri 09:58:54 PM 43.2500 -62.4500 255° West 450 518 43,000  Level Gander Center
Fri 09:59:54 PM 43.2000 -62.6333 250° West 450 518 43,000  Level Gander Center
Fri 10:00:54 PM 43.1667 -62.7833 253° West 460 529 43,000  Level Gander Center
Fri 10:01:54 PM 43.1333 -62.9500 255° West 460 529 43,000  Level Gander Center
Fri 10:02:54 PM 43.1000 -63.1000 253° West 460 529 43,000  Level Gander Center
Fri 10:03:54 PM 43.0667 -63.2833 256° West 450 518 43,000  Level Gander Center
Fri 10:09:13 PM 42.8740 -64.1570 256° West 43,000  Level FlightAware ADS-B
Fri 10:09:57 PM 42.8450 -64.2780 252° West 447 514 43,000  Level FlightAware ADS-B
Fri 10:10:38 PM 42.8190 -64.3870 252° West 446 513 43,000  Level FlightAware ADS-B
Fri 10:11:32 PM 42.7840 -64.5310 252° West 445 512 43,000  Level FlightAware ADS-B
Fri 10:12:17 PM 42.7550 -64.6490 252° West 443 510 43,000  Level FlightAware ADS-B
Fri 10:12:58 PM 42.7280 -64.7590 252° West 443 510 43,000  Level FlightAware ADS-B
Fri 10:13:37 PM 42.7030 -64.8610 252° West 439 505 43,000  Level FlightAware ADS-B
Fri 10:14:18 PM 42.6790 -64.9580 251° West 439 505 43,000  Level FlightAware ADS-B
Fri 10:15:18 PM 42.6420 -65.1070 251° West 439 505 43,000  Level FlightAware ADS-B
Fri 10:15:59 PM 42.6150 -65.2170 252° West 439 505 43,000  Level FlightAware ADS-B
Fri 10:16:38 PM 42.5840 -65.3370 251° West 445 512 43,000  Level FlightAware ADS-B
Fri 10:17:19 PM 42.5630 -65.4210 251° West 446 513 43,000  Level FlightAware ADS-B
Fri 10:17:59 PM 42.5300 -65.5500 251° West 444 511 43,000  Level FlightAware ADS-B
Fri 10:18:51 PM 42.5010 -65.6670 251° West 444 511 43,000  Level FlightAware ADS-B
Fri 10:19:28 PM 42.4800 -65.7500 251° West 444 511 43,000  Level FlightAware ADS-B
Fri 10:20:14 PM 42.4390 -65.9050 250° West 445 512 43,000  Level FlightAware ADS-B
Fri 10:20:54 PM 42.4120 -66.0100 251° West 444 511 43,000  Level FlightAware ADS-B
Fri 10:21:34 PM 42.3850 -66.1130 250° West 447 514 43,000  Level FlightAware ADS-B
Fri 10:22:18 PM 42.3540 -66.2330 251° West 444 511 43,000  Level FlightAware ADS-B
Fri 10:22:59 PM 42.3260 -66.3390 250° West 447 514 43,000  Level FlightAware ADS-B
Fri 10:23:39 PM 42.2990 -66.4420 251° West 448 516 43,000  Level FlightAware ADS-B
Fri 10:24:23 PM 42.2680 -66.5600 250° West 446 513 43,000  Level FlightAware ADS-B
Fri 10:25:08 PM 42.2360 -66.6800 250° West 445 512 43,000  Level FlightAware ADS-B
Fri 10:25:43 PM 42.2120 -66.7720 251° West 445 512 43,000  Level FlightAware ADS-B
Fri 10:26:28 PM 42.1820 -66.8830 250° West 43,000  Level FlightAware ADS-B
Fri 10:27:29 PM 42.1380 -67.0440 250° West 444 511 43,000  Level FlightAware ADS-B
Fri 10:28:09 PM 42.1090 -67.1510 250° West 444 511 43,000  Level FlightAware ADS-B
Fri 10:28:53 PM 42.0780 -67.2650 250° West 443 510 43,000  Level FlightAware ADS-B
Fri 10:29:25 PM 42.0570 -67.3430 250° West 443 510 43,000  Level FlightAware ADS-B
Fri 10:30:08 PM 42.0250 -67.4610 250° West 443 510 43,000  Level FlightAware ADS-B
Fri 10:30:48 PM 41.9960 -67.5660 250° West 445 512 43,000  Level FlightAware ADS-B
Fri 10:31:23 PM 41.9720 -67.6530 250° West 444 511 43,000  Level FlightAware ADS-B
Fri 10:32:08 PM 41.9390 -67.7710 249° West 443 510 43,000  Level FlightAware ADS-B
Fri 10:32:48 PM 41.9100 -67.8740 249° West 441 507 43,000  Level FlightAware ADS-B
Fri 10:33:28 PM 41.8810 -67.9770 249° West 441 507 43,000  Level FlightAware ADS-B
Fri 10:34:08 PM 41.8530 -68.0790 250° West 443 510 43,000  Level FlightAware ADS-B
Fri 10:34:53 PM 41.8190 -68.1980 249° West 448 516 43,000  Level FlightAware ADS-B
Fri 10:35:33 PM 41.7890 -68.3010 249° West 447 514 43,000  Level FlightAware ADS-B
Fri 10:36:13 PM 41.7610 -68.4030 250° West 448 516 43,000  Level FlightAware ADS-B
Fri 10:36:58 PM 41.7320 -68.5040 249° West 447 514 43,000  Level FlightAware ADS-B
Fri 10:37:49 PM 41.6890 -68.6520 249° West 447 514 43,000  Level FlightAware ADS-B
Fri 10:38:34 PM 41.6620 -68.7420 248° West 447 514 43,000  Level FlightAware ADS-B
Fri 10:39:09 PM 41.6310 -68.8520 249° West 444 511 43,000  Level FlightAware ADS-B
Fri 10:39:58 PM 41.5960 -68.9680 248° West 444 511 43,000  Level FlightAware ADS-B
Fri 10:42:54 PM 41.4620 -69.4290 249° West 43,000  Level FlightAware ADS-B
Fri 10:43:35 PM 41.4310 -69.5310 248° West 447 514 43,000  Level FlightAware ADS-B
Fri 10:44:11 PM 41.4070 -69.6090 248° West 447 514 43,000  Level FlightAware ADS-B
Fri 10:44:55 PM 41.3740 -69.7220 249° West 445 512 43,000  Level FlightAware ADS-B
Fri 10:45:43 PM 41.3420 -69.8260 248° West 445 512 43,000  Level FlightAware ADS-B
Fri 10:46:19 PM 41.3190 -69.9040 249° West 445 512 43,000  Level FlightAware ADS-B
Fri 10:47:07 PM 41.2870 -70.0070 248° West 445 512 43,000  Level FlightAware ADS-B
Fri 10:47:54 PM 41.2450 -70.1970 254° West 451 519 43,000  Level FlightAware ADS-B
Fri 10:48:29 PM 41.2240 -70.2920 254° West 451 519 43,000  Level FlightAware ADS-B
Fri 10:49:08 PM 41.2030 -70.3800 252° West 451 519 43,000  Level FlightAware ADS-B
Fri 10:49:49 PM 41.1750 -70.5100 254° West 452 520 43,000  Level FlightAware ADS-B
Fri 10:50:34 PM 41.1480 -70.6290 253° West 450 518 43,000  Level FlightAware ADS-B
Fri 10:51:20 PM 41.1200 -70.7548 254° West 454 522 43,000  Level FlightAware ADS-B
Fri 10:52:09 PM 41.0910 -70.8820 253° West 454 522 43,000  Level FlightAware ADS-B
Fri 10:52:40 PM 41.0722 -70.9659 253° West 454 522 43,000  Level FlightAware ADS-B
Fri 10:53:12 PM 41.0527 -71.0508 253° West 451 519 43,000  Level FlightAware ADS-B
Fri 10:53:42 PM 41.0344 -71.1302 253° West 455 524 43,000  Level FlightAware ADS-B
Fri 10:54:14 PM 41.0149 -71.2152 253° West 454 522 43,000  Level FlightAware ADS-B
Fri 10:54:46 PM 40.9950 -71.3013 253° West 456 525 43,000  Level FlightAware ADS-B
Fri 10:55:22 PM 40.9731 -71.3959 253° West 455 524 43,000  Level FlightAware ADS-B
Fri 10:55:56 PM 40.9520 -71.4869 253° West 453 521 43,000  Level FlightAware ADS-B
Fri 10:56:27 PM 40.9327 -71.5689 253° West 456 525 43,000  Level FlightAware ADS-B
Fri 10:56:59 PM 40.9126 -71.6549 253° West 455 524 43,000  Level FlightAware ADS-B
Fri 10:57:30 PM 40.8933 -71.7364 253° West 460 529 43,000  Level FlightAware ADS-B
Fri 10:58:02 PM 40.8734 -71.8206 253° West 456 525 43,000  Level FlightAware ADS-B
Fri 10:58:33 PM 40.8536 -71.9038 253° West 458 527 43,000  Level FlightAware ADS-B
Fri 10:59:06 PM 40.8330 -71.9906 253° West 458 527 43,000  Level FlightAware ADS-B
Fri 10:59:27 PM 40.8197 -72.0466 253° West 460 529 43,000  Level FlightAware ADS-B
Fri 10:59:37 PM 40.8145 -72.0750 256° West 462 532 43,000  Level FlightAware ADS-B
Fri 10:59:50 PM 40.8103 -72.1122 262° West 462 532 43,000  Level FlightAware ADS-B
Fri 11:00:24 PM 40.8047 -72.2061 266° West 459 528 43,000  Level FlightAware ADS-B
Fri 11:00:55 PM 40.8000 -72.2932 266° West 457 526 43,000  Level FlightAware ADS-B
Fri 11:01:25 PM 40.7953 -72.3766 266° West 459 528 43,000  Level FlightAware ADS-B
Fri 11:01:56 PM 40.7907 -72.4602 266° West 455 524 43,000  Level FlightAware ADS-B
Fri 11:02:26 PM 40.7860 -72.5437 266° West 451 519 43,000  Level FlightAware ADS-B
Fri 11:02:57 PM 40.7812 -72.6279 266° West 456 525 43,000  Level FlightAware ADS-B
Fri 11:03:27 PM 40.7763 -72.7123 266° West 456 525 43,000  Level FlightAware ADS-B
Fri 11:03:57 PM 40.7715 -72.7946 266° West 449 517 43,000  Level FlightAware ADS-B
Fri 11:04:28 PM 40.7666 -72.8791 266° West 451 519 43,000  Level FlightAware ADS-B
Fri 11:04:59 PM 40.7614 -72.9644 265° West 456 525 43,000  Level FlightAware ADS-B
Fri 11:05:29 PM 40.7564 -73.0482 266° West 453 521 43,000  Level FlightAware ADS-B
Fri 11:06:00 PM 40.7512 -73.1329 265° West 449 517 43,000  Level FlightAware ADS-B
Fri 11:06:31 PM 40.7460 -73.2157 265° West 456 525 43,000  Level FlightAware ADS-B
Fri 11:07:01 PM 40.7409 -73.2995 265° West 454 522 43,000  Level FlightAware ADS-B
Fri 11:07:31 PM 40.7391 -73.3835 268° West 455 524 43,000  Level FlightAware ADS-B
Fri 11:08:02 PM 40.7370 -73.4672 268° West 456 525 43,000  Level FlightAware ADS-B
Fri 11:08:32 PM 40.7348 -73.5516 268° West 458 527 43,000  Level FlightAware ADS-B
Fri 11:09:03 PM 40.7326 -73.6359 268° West 455 524 43,000  Level FlightAware ADS-B
Fri 11:09:40 PM 40.7299 -73.7382 268° West 455 524 43,000  Level FlightAware ADS-B
Fri 11:10:11 PM 40.7275 -73.8257 268° West 457 526 43,000  Level FlightAware ADS-B
Fri 11:10:41 PM 40.7252 -73.9101 268° West 456 525 43,000  Level FlightAware ADS-B
Fri 11:11:12 PM 40.7227 -73.9946 268° West 452 520 43,000  Level FlightAware ADS-B
Fri 11:11:43 PM 40.7203 -74.0807 268° West 454 522 43,000  Level FlightAware ADS-B
Fri 11:12:14 PM 40.7178 -74.1640 268° West 458 527 43,000  Level FlightAware ADS-B
Fri 11:12:44 PM 40.7152 -74.2479 268° West 455 524 43,000  Level FlightAware ADS-B
Fri 11:13:20 PM 40.7121 -74.3497 268° West 457 526 43,000  Level FlightAware ADS-B
Fri 11:13:34 PM 40.7110 -74.3876 268° West 458 527 43,000  Level FlightAware ADS-B
Fri 11:13:51 PM 40.7096 -74.4354 268° West 464 534 43,000  Level FlightAware ADS-B
Fri 11:14:21 PM 40.7067 -74.5203 267° West 465 535 43,000  Level FlightAware ADS-B
Fri 11:14:51 PM 40.7038 -74.6048 267° West 464 534 43,000  Level FlightAware ADS-B
Fri 11:15:22 PM 40.7007 -74.6927 267° West 464 534 43,000  Level FlightAware ADS-B
Fri 11:15:53 PM 40.6977 -74.7789 267° West 459 528 43,000  Level FlightAware ADS-B
Fri 11:16:23 PM 40.6947 -74.8623 267° West 457 526 43,000  Level FlightAware ADS-B
Fri 11:16:54 PM 40.6915 -74.9492 267° West 456 525 43,000  Level FlightAware ADS-B
Fri 11:17:25 PM 40.6884 -75.0336 267° West 456 525 43,000  Level FlightAware ADS-B
Fri 11:17:55 PM 40.6853 -75.1169 267° West 459 528 43,000  Level FlightAware ADS-B
Fri 11:18:25 PM 40.6821 -75.2013 267° West 457 526 43,000  Level FlightAware ADS-B
Fri 11:18:56 PM 40.6788 -75.2848 267° West 458 527 43,000  Level FlightAware ADS-B
Fri 11:19:26 PM 40.6754 -75.3695 267° West 462 532 43,000  Level FlightAware ADS-B
Fri 11:19:57 PM 40.6718 -75.4561 267° West 464 534 43,000  Level FlightAware ADS-B
Fri 11:20:27 PM 40.6683 -75.5410 267° West 464 534 43,000  Level FlightAware ADS-B
Fri 11:20:58 PM 40.6647 -75.6265 267° West 466 536 43,000  Level FlightAware ADS-B
Fri 11:21:28 PM 40.6610 -75.7128 267° West 464 534 43,000  Level FlightAware ADS-B
Fri 11:21:59 PM 40.6572 -75.7999 267° West 464 534 43,000  Level FlightAware ADS-B
Fri 11:22:29 PM 40.6534 -75.8842 267° West 463 533 43,000  Level FlightAware ADS-B
Fri 11:23:00 PM 40.6495 -75.9721 267° West 463 533 43,000  Level FlightAware ADS-B
Fri 11:23:31 PM 40.6455 -76.0580 267° West 464 534 43,000  Level FlightAware ADS-B
Fri 11:24:01 PM 40.6415 -76.1425 266° West 465 535 43,000  Level FlightAware ADS-B
Fri 11:24:31 PM 40.6375 -76.2271 266° West 467 537 43,000  Level FlightAware ADS-B
Fri 11:25:02 PM 40.6373 -76.3137 270° West 470 541 43,000  Level FlightAware ADS-B
Fri 11:25:32 PM 40.6384 -76.3992 271° West 470 541 43,000  Level FlightAware ADS-B
Fri 11:26:02 PM 40.6395 -76.4877 271° West 471 542 43,000  Level FlightAware ADS-B
Fri 11:26:33 PM 40.6404 -76.5740 271° West 471 542 43,000  Level FlightAware ADS-B
Fri 11:27:03 PM 40.6413 -76.6618 271° West 470 541 43,000  Level FlightAware ADS-B
Fri 11:27:34 PM 40.6421 -76.7490 271° West 468 539 43,000  Level FlightAware ADS-B
Fri 11:28:05 PM 40.6429 -76.8353 271° West 469 540 43,000  Level FlightAware ADS-B
Fri 11:28:35 PM 40.6436 -76.9204 271° West 466 536 43,000  Level FlightAware ADS-B
Fri 11:29:06 PM 40.6444 -77.0112 271° West 469 540 43,000  Level FlightAware ADS-B
Fri 11:29:40 PM 40.6450 -77.1055 271° West 467 537 43,000  Level FlightAware ADS-B
Fri 11:30:10 PM 40.6456 -77.1914 271° West 464 534 43,000  Level FlightAware ADS-B
Fri 11:30:42 PM 40.6461 -77.2830 270° West 467 537 43,000  Level FlightAware ADS-B
Fri 11:31:15 PM 40.6467 -77.3740 271° West 469 540 43,000  Level FlightAware ADS-B
Fri 11:31:47 PM 40.6469 -77.4651 270° West 469 540 43,000  Level FlightAware ADS-B
Fri 11:32:21 PM 40.6472 -77.5632 270° West 466 536 43,000  Level FlightAware ADS-B
Fri 11:32:52 PM 40.6474 -77.6495 270° West 466 536 43,000  Level FlightAware ADS-B
Fri 11:33:22 PM 40.6475 -77.7355 270° West 464 534 43,000  Level FlightAware ADS-B
Fri 11:33:52 PM 40.6474 -77.8197 270° West 463 533 43,000  Level FlightAware ADS-B
Fri 11:34:23 PM 40.6470 -77.8910 270° West 464 534 43,000  Level FlightAware ADS-B
Fri 11:35:03 PM 40.6520 -78.0100 273° West 476 548 43,000  Level FlightAware ADS-B
Fri 11:35:38 PM 40.6640 -78.1080 279° West 476 548 43,000  Level FlightAware ADS-B
Fri 11:36:23 PM 40.6790 -78.2360 279° West 486 559 43,000  Level FlightAware ADS-B
Fri 11:37:03 PM 40.6950 -78.3660 279° West 489 563 43,000  Level FlightAware ADS-B
Fri 11:37:44 PM 40.7100 -78.4860 279° West 484 557 43,000  Level FlightAware ADS-B
Fri 11:38:26 PM 40.7240 -78.6070 279° West 486 559 43,000  Level FlightAware ADS-B
Fri 11:39:10 PM 40.7410 -78.7370 280° West 485 558 43,000  Level FlightAware ADS-B
Fri 11:39:50 PM 40.7550 -78.8520 279° West 482 555 43,000  Level FlightAware ADS-B
Fri 11:40:26 PM 40.7610 -78.9530 275° West 476 548 43,000  Level FlightAware ADS-B
Fri 11:41:24 PM 40.7610 -79.1240 270° West 475 547 43,000  Level FlightAware ADS-B
Fri 11:42:00 PM 40.7600 -79.2300 269° West 472 543 43,000  Level FlightAware ADS-B
Fri 11:42:40 PM 40.7590 -79.3470 269° West 475 547 43,000  Level FlightAware ADS-B
Fri 11:43:20 PM 40.7570 -79.4600 269° West 472 543 43,000  Level FlightAware ADS-B
Fri 11:43:59 PM 40.7550 -79.5700 269° West 474 545 43,000  Level FlightAware ADS-B
Fri 11:44:44 PM 40.7530 -79.6990 269° West 477 549 43,000  Level FlightAware ADS-B
Fri 11:45:28 PM 40.7500 -79.8290 268° West 483 556 43,000  Level FlightAware ADS-B
Fri 11:46:08 PM 40.7480 -79.9450 269° West 484 557 43,000  Level FlightAware ADS-B
Fri 11:46:52 PM 40.7450 -80.0750 268° West 484 557 43,000  Level FlightAware ADS-B
Fri 11:47:22 PM 40.7430 -80.1640 268° West 484 557 43,000  Level FlightAware ADS-B
Fri 11:48:08 PM 40.7400 -80.3010 268° West 487 560 43,000  Level FlightAware ADS-B
Fri 11:48:49 PM 40.7370 -80.4230 268° West 490 564 43,000  Level FlightAware ADS-B
Fri 11:49:24 PM 40.7340 -80.5270 268° West 493 567 43,000  Level FlightAware ADS-B
Fri 11:50:09 PM 40.7310 -80.6640 268° West 495 570 43,000  Level FlightAware ADS-B
Fri 11:50:50 PM 40.7270 -80.7850 268° West 491 565 43,000  Level FlightAware ADS-B
Fri 11:51:29 PM 40.7240 -80.9040 268° West 500 575 43,000  Level FlightAware ADS-B
Fri 11:52:12 PM 40.7200 -81.0330 268° West 499 574 43,000  Level FlightAware ADS-B
Fri 11:52:57 PM 40.7160 -81.1690 268° West 496 571 43,000  Level FlightAware ADS-B
Fri 11:53:37 PM 40.7120 -81.2910 268° West 500 575 43,000  Level FlightAware ADS-B
Fri 11:54:22 PM 40.7070 -81.4270 267° West 497 572 43,000  Level FlightAware ADS-B
Fri 11:55:00 PM 40.7040 -81.5420 268° West 499 574 43,000  Level FlightAware ADS-B
Fri 11:55:41 PM 40.6990 -81.6670 267° West 498 573 43,000  Level FlightAware ADS-B
Fri 11:56:28 PM 40.6940 -81.8070 267° West 499 574 43,000  Level FlightAware ADS-B
Fri 11:57:08 PM 40.6890 -81.9300 267° West 502 578 43,000  Level FlightAware ADS-B
Fri 11:57:51 PM 40.6840 -82.0630 267° West 505 581 43,000  Level FlightAware ADS-B
Fri 11:58:23 PM 40.6800 -82.1610 267° West 505 581 43,000  Level FlightAware ADS-B
Fri 11:59:07 PM 40.6750 -82.2960 267° West 505 581 43,000  Level FlightAware ADS-B
Fri 11:59:47 PM 40.6700 -82.4200 267° West 508 585 43,000  Level FlightAware ADS-B
Sat 12:00:32 AM 40.6640 -82.5560 267° West 506 582 43,000  Level FlightAware ADS-B
Sat 12:01:12 AM 40.6580 -82.6800 266° West 501 577 43,000  Level FlightAware ADS-B
Sat 12:01:57 AM 40.6530 -82.8120 267° West 499 574 43,000  Level FlightAware ADS-B
Sat 12:02:38 AM 40.6470 -82.9360 266° West 502 578 43,000  Level FlightAware ADS-B
Sat 12:03:11 AM 40.6420 -83.0390 266° West 506 582 43,000  Level FlightAware ADS-B
Sat 12:03:50 AM 40.6360 -83.1560 266° West 507 583 43,000  Level FlightAware ADS-B
Sat 12:04:34 AM 40.6290 -83.2950 266° West 510 587 43,000  Level FlightAware ADS-B
Sat 12:05:11 AM 40.6240 -83.4080 267° West 516 594 43,000  Level FlightAware ADS-B
Sat 12:05:52 AM 40.6170 -83.5400 266° West 512 589 43,000  Level FlightAware ADS-B
Sat 12:06:35 AM 40.6100 -83.6710 266° West 513 590 43,000  Level FlightAware ADS-B
Sat 12:07:14 AM 40.6040 -83.7930 266° West 518 596 43,000  Level FlightAware ADS-B
Sat 12:08:00 AM 40.5960 -83.9390 266° West 518 596 43,000  Level FlightAware ADS-B
Sat 12:08:38 AM 40.5890 -84.0560 266° West 513 590 43,000  Level FlightAware ADS-B
Sat 12:09:24 AM 40.5810 -84.1980 266° West 509 586 43,000  Level FlightAware ADS-B
Sat 12:10:00 AM 40.5750 -84.3080 266° West 505 581 43,000  Level FlightAware ADS-B
Sat 12:10:40 AM 40.5670 -84.4330 265° West 512 589 43,000  Level FlightAware ADS-B
Sat 12:11:20 AM 40.5600 -84.5530 266° West 516 594 43,000  Level FlightAware ADS-B
Sat 12:12:01 AM 40.5520 -84.6810 265° West 514 592 43,000  Level FlightAware ADS-B
Sat 12:12:38 AM 40.5450 -84.7930 265° West 518 596 43,000  Level FlightAware ADS-B
Sat 12:13:21 AM 40.5360 -84.9320 265° West 520 598 43,000  Level FlightAware ADS-B
Sat 12:14:01 AM 40.5280 -85.0570 265° West 520 598 43,000  Level FlightAware ADS-B
Sat 12:14:45 AM 40.5190 -85.1960 265° West 519 597 43,000  Level FlightAware ADS-B
Sat 12:15:07 AM 40.5140 -85.2660 265° West 519 597 43,000  Level FlightAware ADS-B
Sat 12:15:58 AM 40.5030 -85.4280 265° West 522 601 43,000  Level FlightAware ADS-B
Sat 12:16:44 AM 40.4930 -85.5750 265° West 522 601 43,000  Level FlightAware ADS-B
Sat 12:17:24 AM 40.4850 -85.6980 265° West 522 601 43,000  Level FlightAware ADS-B
Sat 12:18:08 AM 40.4750 -85.8370 265° West 515 593 43,000  Level FlightAware ADS-B
Sat 12:18:52 AM 40.4650 -85.9750 265° West 518 596 43,000  Level FlightAware ADS-B
Sat 12:19:24 AM 40.4570 -86.0720 264° West 515 593 43,000  Level FlightAware ADS-B
Sat 12:20:08 AM 40.4470 -86.2110 265° West 513 590 43,000  Level FlightAware ADS-B
Sat 12:20:48 AM 40.4380 -86.3360 265° West 520 598 43,000  Level FlightAware ADS-B
Sat 12:21:32 AM 40.4270 -86.4710 264° West 517 595 43,000  Level FlightAware ADS-B
Sat 12:22:12 AM 40.4170 -86.5970 264° West 512 589 43,000  Level FlightAware ADS-B
Sat 12:22:56 AM 40.4070 -86.7330 265° West 516 594 43,000  Level FlightAware ADS-B
Sat 12:23:36 AM 40.3960 -86.8580 263° West 516 594 43,000  Level FlightAware ADS-B
Sat 12:24:14 AM 40.3870 -86.9680 264° West 505 581 43,000 231 Level FlightAware ADS-B
Sat 12:24:54 AM 40.3770 -87.0950 264° West 504 580 43,300 714 Climbing FlightAware ADS-B
Sat 12:25:38 AM 40.3660 -87.2290 264° West 502 578 44,000 789 Climbing FlightAware ADS-B
Sat 12:26:10 AM 40.3580 -87.3240 264° West 505 581 44,300 640 Climbing FlightAware ADS-B
Sat 12:26:53 AM 40.3470 -87.4520 264° West 506 582 44,800 488 Climbing FlightAware ADS-B
Sat 12:27:36 AM 40.3350 -87.5860 263° West 508 585 45,000 145 Climbing FlightAware ADS-B
Sat 12:28:16 AM 40.3240 -87.7070 263° West 505 581 45,000  Level FlightAware ADS-B
Sat 12:29:00 AM 40.3130 -87.8390 264° West 501 577 45,000  Level FlightAware ADS-B
Sat 12:29:40 AM 40.3020 -87.9590 263° West 490 564 45,000  Level FlightAware ADS-B
Sat 12:30:24 AM 40.2900 -88.0900 263° West 489 563 45,000  Level FlightAware ADS-B
Sat 12:31:00 AM 40.2800 -88.1940 263° West 484 557 45,000  Level FlightAware ADS-B
Sat 12:31:42 AM 40.2690 -88.3150 263° West 488 562 45,000  Level FlightAware ADS-B
Sat 12:32:22 AM 40.2580 -88.4320 263° West 485 558 45,000  Level FlightAware ADS-B
Sat 12:33:00 AM 40.2470 -88.5430 263° West 486 559 45,000  Level FlightAware ADS-B
Sat 12:33:38 AM 40.2370 -88.6500 263° West 485 558 45,000  Level FlightAware ADS-B
Sat 12:34:19 AM 40.2250 -88.7740 263° West 490 564 45,000  Level FlightAware ADS-B
Sat 12:34:57 AM 40.2150 -88.8800 263° West 493 567 45,000  Level FlightAware ADS-B
Sat 12:35:46 AM 40.2000 -89.0280 262° West 487 560 45,000  Level FlightAware ADS-B
Sat 12:36:26 AM 40.1880 -89.1450 262° West 488 562 45,000  Level FlightAware ADS-B
Sat 12:37:10 AM 40.1750 -89.2740 263° West 491 565 45,000  Level FlightAware ADS-B
Sat 12:37:50 AM 40.1630 -89.3930 263° West 492 566 45,000  Level FlightAware ADS-B
Sat 12:38:28 AM 40.1510 -89.5030 262° West 493 567 45,000  Level FlightAware ADS-B
Sat 12:39:08 AM 40.1390 -89.6180 262° West 490 564 45,000  Level FlightAware ADS-B
Sat 12:39:52 AM 40.1250 -89.7500 262° West 491 565 45,000  Level FlightAware ADS-B
Sat 12:40:21 AM 40.1160 -89.8370 262° West 496 571 45,000  Level FlightAware ADS-B
Sat 12:41:08 AM 40.1010 -89.9760 262° West 497 572 45,000  Level FlightAware ADS-B
Sat 12:41:47 AM 40.0880 -90.0900 262° West 496 571 45,000  Level FlightAware ADS-B
Sat 12:42:29 AM 40.0750 -90.2140 262° West 493 567 45,000  Level FlightAware ADS-B
Sat 12:43:14 AM 40.0600 -90.3490 262° West 495 570 45,000  Level FlightAware ADS-B
Sat 12:43:52 AM 40.0470 -90.4610 261° West 494 568 45,000  Level FlightAware ADS-B
Sat 12:44:38 AM 40.0320 -90.5940 262° West 494 568 45,000  Level FlightAware ADS-B
Sat 12:45:11 AM 40.0210 -90.6900 262° West 493 567 45,000  Level FlightAware ADS-B
Sat 12:45:50 AM 40.0070 -90.8070 261° West 491 565 45,000  Level FlightAware ADS-B
Sat 12:46:35 AM 39.9940 -90.9240 262° West 491 565 45,000  Level FlightAware ADS-B
Sat 12:47:11 AM 39.9800 -91.0410 261° West 490 564 45,000  Level FlightAware ADS-B
Sat 12:47:52 AM 39.9650 -91.1630 261° West 491 565 45,000  Level FlightAware ADS-B
Sat 12:48:35 AM 39.9510 -91.2860 262° West 489 563 45,000  Level FlightAware ADS-B
Sat 12:49:15 AM 39.9370 -91.4030 261° West 485 558 45,000  Level FlightAware ADS-B
Sat 12:49:59 AM 39.9210 -91.5300 261° West 484 557 45,000  Level FlightAware ADS-B
Sat 12:50:40 AM 39.9070 -91.6480 261° West 487 560 45,000  Level FlightAware ADS-B
Sat 12:51:23 AM 39.8910 -91.7710 260° West 488 562 45,000  Level FlightAware ADS-B
Sat 12:51:59 AM 39.8780 -91.8740 261° West 486 559 45,000  Level FlightAware ADS-B
Sat 12:52:39 AM 39.8630 -91.9910 261° West 488 562 45,000  Level FlightAware ADS-B
Sat 12:53:23 AM 39.8470 -92.1180 261° West 487 560 45,000  Level FlightAware ADS-B
Sat 12:53:59 AM 39.8340 -92.2230 261° West 483 556 45,000  Level FlightAware ADS-B
Sat 12:54:39 AM 39.8190 -92.3390 260° West 484 557 45,000  Level FlightAware ADS-B
Sat 12:55:20 AM 39.8040 -92.4530 260° West 482 555 45,000  Level FlightAware ADS-B
Sat 12:56:00 AM 39.7890 -92.5680 260° West 480 552 45,000  Level FlightAware ADS-B
Sat 12:56:44 AM 39.7720 -92.6940 260° West 481 554 45,000  Level FlightAware ADS-B
Sat 12:57:14 AM 39.7611 -92.7773 260° West 483 556 45,000  Level FlightAware ADS-B
Sat 12:57:44 AM 39.7495 -92.8635 260° West 483 556 45,000  Level FlightAware ADS-B
Sat 12:58:14 AM 39.7378 -92.9497 260° West 480 552 45,000  Level FlightAware ADS-B
Sat 12:58:44 AM 39.7261 -93.0359 260° West 481 554 45,000  Level FlightAware ADS-B
Sat 12:59:15 AM 39.7142 -93.1229 260° West 484 557 45,000  Level FlightAware ADS-B
Sat 12:59:45 AM 39.7024 -93.2084 260° West 484 557 45,000  Level FlightAware ADS-B
Sat 01:00:16 AM 39.6904 -93.2952 260° West 485 558 45,000  Level FlightAware ADS-B
Sat 01:00:46 AM 39.6783 -93.3825 260° West 484 557 45,000  Level FlightAware ADS-B
Sat 01:01:16 AM 39.6664 -93.4677 260° West 483 556 45,000  Level FlightAware ADS-B
Sat 01:01:46 AM 39.6542 -93.5542 260° West 484 557 45,000  Level FlightAware ADS-B
Sat 01:02:17 AM 39.6421 -93.6401 260° West 482 555 45,000  Level FlightAware ADS-B
Sat 01:02:47 AM 39.6298 -93.7259 259° West 480 552 45,000  Level FlightAware ADS-B
Sat 01:03:17 AM 39.6178 -93.8104 260° West 479 551 45,000  Level FlightAware ADS-B
Sat 01:03:47 AM 39.6054 -93.8962 259° West 480 552 45,000  Level FlightAware ADS-B
Sat 01:04:17 AM 39.5932 -93.9809 259° West 481 554 45,000  Level FlightAware ADS-B
Sat 01:04:48 AM 39.5808 -94.0661 259° West 479 551 45,000  Level FlightAware ADS-B
Sat 01:05:18 AM 39.5685 -94.1504 259° West 478 550 45,000  Level FlightAware ADS-B
Sat 01:05:48 AM 39.5560 -94.2350 259° West 476 548 45,000  Level FlightAware ADS-B
Sat 01:06:21 AM 39.5423 -94.3278 259° West 476 548 45,000  Level FlightAware ADS-B
Sat 01:06:51 AM 39.5298 -94.4119 259° West 479 551 45,000  Level FlightAware ADS-B
Sat 01:07:21 AM 39.5172 -94.4962 259° West 479 551 45,000  Level FlightAware ADS-B
Sat 01:07:51 AM 39.5046 -94.5805 259° West 480 552 45,000  Level FlightAware ADS-B
Sat 01:08:21 AM 39.4919 -94.6649 259° West 480 552 45,000  Level FlightAware ADS-B
Sat 01:08:51 AM 39.4789 -94.7503 259° West 479 551 45,000  Level FlightAware ADS-B
Sat 01:09:21 AM 39.4662 -94.8334 259° West 479 551 45,000  Level FlightAware ADS-B
Sat 01:09:53 AM 39.4524 -94.9239 259° West 476 548 45,000  Level FlightAware ADS-B
Sat 01:10:26 AM 39.4387 -95.0130 259° West 475 547 45,000  Level FlightAware ADS-B
Sat 01:10:56 AM 39.4255 -95.0981 259° West 476 548 45,000  Level FlightAware ADS-B
Sat 01:11:26 AM 39.4123 -95.1827 259° West 475 547 45,000  Level FlightAware ADS-B
Sat 01:11:57 AM 39.3990 -95.2675 259° West 473 544 45,000  Level FlightAware ADS-B
Sat 01:12:27 AM 39.3858 -95.3515 259° West 473 544 45,000  Level FlightAware ADS-B
Sat 01:12:58 AM 39.3725 -95.4362 259° West 475 547 45,000  Level FlightAware ADS-B
Sat 01:13:28 AM 39.3593 -95.5205 259° West 474 545 45,000  Level FlightAware ADS-B
Sat 01:13:59 AM 39.3459 -95.6042 258° West 476 548 45,000  Level FlightAware ADS-B
Sat 01:14:30 AM 39.3318 -95.6912 258° West 475 547 45,000  Level FlightAware ADS-B
Sat 01:15:00 AM 39.3182 -95.7754 258° West 475 547 45,000  Level FlightAware ADS-B
Sat 01:15:31 AM 39.3045 -95.8603 258° West 476 548 45,000  Level FlightAware ADS-B
Sat 01:16:01 AM 39.2906 -95.9448 258° West 478 550 45,000  Level FlightAware ADS-B
Sat 01:16:32 AM 39.2769 -96.0285 258° West 480 552 45,000  Level FlightAware ADS-B
Sat 01:17:02 AM 39.2632 -96.1129 258° West 479 551 45,000  Level FlightAware ADS-B
Sat 01:17:32 AM 39.2493 -96.1964 258° West 478 550 45,000  Level FlightAware ADS-B
Sat 01:18:05 AM 39.2339 -96.2893 258° West 478 550 45,000  Level FlightAware ADS-B
Sat 01:18:35 AM 39.2201 -96.3724 258° West 476 548 45,000  Level FlightAware ADS-B
Sat 01:19:05 AM 39.2062 -96.4555 258° West 477 549 45,000  Level FlightAware ADS-B
Sat 01:19:35 AM 39.1922 -96.5385 258° West 476 548 45,000  Level FlightAware ADS-B
Sat 01:20:05 AM 39.1782 -96.6212 258° West 475 547 45,000  Level FlightAware ADS-B
Sat 01:20:36 AM 39.1640 -96.7052 258° West 476 548 45,000  Level FlightAware ADS-B
Sat 01:21:06 AM 39.1497 -96.7887 258° West 477 549 45,000  Level FlightAware ADS-B
Sat 01:21:36 AM 39.1355 -96.8716 258° West 475 547 45,000  Level FlightAware ADS-B
Sat 01:22:06 AM 39.1209 -96.9563 257° West 473 544 45,000  Level FlightAware ADS-B
Sat 01:22:37 AM 39.1062 -97.0413 257° West 473 544 45,000  Level FlightAware ADS-B
Sat 01:23:08 AM 39.0919 -97.1234 257° West 472 543 45,000  Level FlightAware ADS-B
Sat 01:23:38 AM 39.0776 -97.2052 257° West 471 542 45,000  Level FlightAware ADS-B
Sat 01:24:08 AM 39.0632 -97.2874 257° West 474 545 45,000  Level FlightAware ADS-B
Sat 01:24:38 AM 39.0485 -97.3712 257° West 474 545 45,000  Level FlightAware ADS-B
Sat 01:25:08 AM 39.0337 -97.4532 257° West 472 543 45,000  Level FlightAware ADS-B
Sat 01:25:39 AM 39.0188 -97.5375 257° West 469 540 45,000  Level FlightAware ADS-B
Sat 01:26:09 AM 39.0044 -97.6187 257° West 468 539 45,000  Level FlightAware ADS-B
Sat 01:26:42 AM 38.9885 -97.7078 257° West 468 539 45,000  Level FlightAware ADS-B
Sat 01:27:23 AM 38.9686 -97.8187 257° West 468 539 45,000  Level FlightAware ADS-B
Sat 01:27:54 AM 38.9535 -97.9015 257° West 470 541 45,000  Level FlightAware ADS-B
Sat 01:28:24 AM 38.9386 -97.9839 257° West 470 541 45,000  Level FlightAware ADS-B
Sat 01:28:54 AM 38.9237 -98.0654 257° West 471 542 45,000  Level FlightAware ADS-B
Sat 01:29:25 AM 38.9086 -98.1479 257° West 472 543 45,000  Level FlightAware ADS-B
Sat 01:29:55 AM 38.8934 -98.2300 257° West 472 543 45,000  Level FlightAware ADS-B
Sat 01:30:25 AM 38.8781 -98.3124 257° West 471 542 45,000  Level FlightAware ADS-B
Sat 01:30:55 AM 38.8629 -98.3948 257° West 471 542 45,000  Level FlightAware ADS-B
Sat 01:31:28 AM 38.8462 -98.4841 257° West 471 542 45,000  Level FlightAware ADS-B
Sat 01:32:12 AM 38.8241 -98.6019 256° West 465 535 45,000  Level FlightAware ADS-B
Sat 01:32:43 AM 38.8089 -98.6827 256° West 467 537 45,000  Level FlightAware ADS-B
Sat 01:33:13 AM 38.7932 -98.7656 256° West 469 540 45,000  Level FlightAware ADS-B
Sat 01:33:44 AM 38.7778 -98.8465 256° West 465 535 45,000  Level FlightAware ADS-B
Sat 01:34:14 AM 38.7622 -98.9281 256° West 464 534 45,000  Level FlightAware ADS-B
Sat 01:34:44 AM 38.7470 -99.0075 256° West 464 534 45,000  Level FlightAware ADS-B
Sat 01:35:32 AM 38.7227 -99.1336 256° West 464 534 45,000  Level FlightAware ADS-B
Sat 01:36:02 AM 38.7071 -99.2141 256° West 465 535 45,000  Level FlightAware ADS-B
Sat 01:37:10 AM 38.6780 -99.3650 256° West 464 534 45,000  Level FlightAware ADS-B
Sat 01:37:48 AM 38.6520 -99.4950 256° West 463 533 45,000  Level FlightAware ADS-B
Sat 01:38:26 AM 38.6340 -99.5800 255° West 463 533 45,000  Level FlightAware ADS-B
Sat 01:39:02 AM 38.6170 -99.6610 255° West 463 533 45,000  Level FlightAware ADS-B
Sat 01:39:49 AM 38.5890 -99.8140 257° West 459 528 45,000  Level FlightAware ADS-B
Sat 01:40:30 AM 38.5680 -99.9200 256° West 461 531 45,000  Level FlightAware ADS-B
Sat 01:41:24 AM 38.5410 -100.0500 255° West 463 533 45,000  Level FlightAware ADS-B
Sat 01:42:04 AM 38.5190 -100.1590 256° West 462 532 45,000  Level FlightAware ADS-B
Sat 01:42:54 AM 38.4960 -100.2710 255° West 462 532 45,000  Level FlightAware ADS-B
Sat 01:43:18 AM 38.4840 -100.3250 254° West 462 532 45,000  Level FlightAware ADS-B
Sat 01:44:09 AM 38.4600 -100.4390 255° West 462 532 45,000  Level FlightAware ADS-B
Sat 01:44:45 AM 38.4430 -100.5200 255° West 462 532 45,000  Level FlightAware ADS-B
Sat 01:45:21 AM 38.4260 -100.6010 255° West 462 532 45,000  Level FlightAware ADS-B
Sat 01:46:22 AM 38.3980 -100.7370 255° West 462 532 45,000  Level FlightAware ADS-B
Sat 01:46:58 AM 38.3810 -100.8180 255° West 462 532 45,000  Level FlightAware ADS-B
Sat 01:47:14 AM 38.3485 -100.9850 256° West 462 532 45,000  Level FlightAware ADS-B
Sat 01:47:45 AM 38.3315 -101.0660 255° West 462 532 45,000  Level FlightAware ADS-B
Sat 01:48:15 AM 38.3146 -101.1450 255° West 464 534 45,000  Level FlightAware ADS-B
Sat 01:48:45 AM 38.2974 -101.2260 255° West 462 532 45,000  Level FlightAware ADS-B
Sat 01:49:15 AM 38.2806 -101.3040 255° West 461 531 45,000  Level FlightAware ADS-B
Sat 01:49:46 AM 38.2636 -101.3840 255° West 460 529 45,000  Level FlightAware ADS-B
Sat 01:50:16 AM 38.2464 -101.4640 255° West 465 535 45,000  Level FlightAware ADS-B
Sat 01:50:46 AM 38.2294 -101.5420 255° West 463 533 45,000  Level FlightAware ADS-B
Sat 01:51:17 AM 38.2122 -101.6220 255° West 465 535 45,000  Level FlightAware ADS-B
Sat 01:51:47 AM 38.1948 -101.7020 255° West 465 535 45,000  Level FlightAware ADS-B
Sat 01:52:17 AM 38.1774 -101.7810 254° West 466 536 45,000  Level FlightAware ADS-B
Sat 01:52:47 AM 38.1601 -101.8600 254° West 465 535 45,000  Level FlightAware ADS-B
Sat 01:53:18 AM 38.1425 -101.9400 254° West 464 534 45,000  Level FlightAware ADS-B
Sat 01:53:48 AM 38.1251 -102.0190 254° West 465 535 45,000  Level FlightAware ADS-B
Sat 01:54:18 AM 38.1077 -102.0970 254° West 464 534 45,000  Level FlightAware ADS-B
Sat 01:54:49 AM 38.0901 -102.1770 254° West 463 533 45,000  Level FlightAware ADS-B
Sat 01:55:19 AM 38.0723 -102.2570 254° West 463 533 45,000  Level FlightAware ADS-B
Sat 01:55:50 AM 38.0539 -102.3380 254° West 461 531 45,000  Level FlightAware ADS-B
Sat 01:56:20 AM 38.0365 -102.4160 254° West 460 529 45,000  Level FlightAware ADS-B
Sat 01:56:51 AM 38.0189 -102.4940 254° West 461 531 45,000  Level FlightAware ADS-B
Sat 01:57:21 AM 38.0013 -102.5720 254° West 460 529 45,000  Level FlightAware ADS-B
Sat 01:57:51 AM 37.9838 -102.6490 254° West 458 527 45,000  Level FlightAware ADS-B
Sat 01:58:21 AM 37.9660 -102.7270 254° West 458 527 45,000  Level FlightAware ADS-B
Sat 01:58:51 AM 37.9484 -102.8040 254° West 459 528 45,000  Level FlightAware ADS-B
Sat 01:59:21 AM 37.9306 -102.8820 254° West 459 528 45,000  Level FlightAware ADS-B
Sat 01:59:52 AM 37.9126 -102.9600 254° West 460 529 45,000  Level FlightAware ADS-B
Sat 02:00:22 AM 37.8945 -103.0380 254° West 465 535 45,000  Level FlightAware ADS-B
Sat 02:00:52 AM 37.8762 -103.1180 254° West 466 536 45,000  Level FlightAware ADS-B
Sat 02:01:22 AM 37.8580 -103.1960 254° West 466 536 45,000  Level FlightAware ADS-B
Sat 02:01:53 AM 37.8394 -103.2760 254° West 467 537 45,000  Level FlightAware ADS-B
Sat 02:02:23 AM 37.8209 -103.3550 254° West 465 535 45,000  Level FlightAware ADS-B
Sat 02:02:53 AM 37.8026 -103.4330 253° West 465 535 45,000  Level FlightAware ADS-B
Sat 02:03:23 AM 37.7838 -103.5120 253° West 469 540 45,000  Level FlightAware ADS-B
Sat 02:03:53 AM 37.7652 -103.5910 253° West 470 541 45,000  Level FlightAware ADS-B
Sat 02:04:24 AM 37.7462 -103.6710 253° West 469 540 45,000  Level FlightAware ADS-B
Sat 02:04:54 AM 37.7274 -103.7500 253° West 469 540 45,000  Level FlightAware ADS-B
Sat 02:05:24 AM 37.7086 -103.8290 253° West 473 544 45,000  Level FlightAware ADS-B
Sat 02:05:55 AM 37.6896 -103.9090 253° West 475 547 45,000  Level FlightAware ADS-B
Sat 02:06:25 AM 37.6706 -103.9880 253° West 464 534 45,000  Level FlightAware ADS-B
Sat 02:06:55 AM 37.6517 -104.0650 253° West 458 527 45,000  Level FlightAware ADS-B
Sat 02:07:27 AM 37.6321 -104.1460 253° West 463 533 45,000  Level FlightAware ADS-B
Sat 02:08:02 AM 37.6101 -104.2370 253° West 466 536 45,000  Level FlightAware ADS-B
Sat 02:08:32 AM 37.5912 -104.3150 253° West 466 536 45,000  Level FlightAware ADS-B
Sat 02:09:08 AM 37.5679 -104.4100 253° West 467 537 45,000  Level FlightAware ADS-B
Sat 02:09:39 AM 37.5484 -104.4890 253° West 469 540 45,000  Level FlightAware ADS-B
Sat 02:10:19 AM 37.5225 -104.5950 253° West 470 541 45,000  Level FlightAware ADS-B
Sat 02:10:52 AM 37.5019 -104.6780 253° West 465 535 45,000  Level FlightAware ADS-B
Sat 02:11:22 AM 37.4826 -104.7560 253° West 460 529 45,000  Level FlightAware ADS-B
Sat 02:11:52 AM 37.4636 -104.8320 253° West 450 518 45,000  Level FlightAware ADS-B
Sat 02:12:23 AM 37.4447 -104.9080 253° West 453 521 45,000  Level FlightAware ADS-B
Sat 02:12:54 AM 37.4253 -104.9850 252° West 453 521 45,000  Level FlightAware ADS-B
Sat 02:13:24 AM 37.4061 -105.0620 253° West 453 521 45,000  Level FlightAware ADS-B
Sat 02:13:54 AM 37.3870 -105.1380 252° West 452 520 45,000  Level FlightAware ADS-B
Sat 02:14:24 AM 37.3680 -105.2130 252° West 455 524 45,000  Level FlightAware ADS-B
Sat 02:14:55 AM 37.3487 -105.2890 252° West 457 526 45,000  Level FlightAware ADS-B
Sat 02:15:25 AM 37.3291 -105.3660 252° West 462 532 45,000  Level FlightAware ADS-B
Sat 02:15:56 AM 37.3092 -105.4440 252° West 460 529 45,000  Level FlightAware ADS-B
Sat 02:16:26 AM 37.2895 -105.5210 252° West 463 533 45,000  Level FlightAware ADS-B
Sat 02:16:56 AM 37.2698 -105.5980 252° West 463 533 45,000  Level FlightAware ADS-B
Sat 02:17:27 AM 37.2495 -105.6770 252° West 463 533 45,000  Level FlightAware ADS-B
Sat 02:17:57 AM 37.2296 -105.7540 252° West 469 540 45,000  Level FlightAware ADS-B
Sat 02:18:27 AM 37.2093 -105.8330 252° West 472 543 45,000  Level FlightAware ADS-B
Sat 02:18:58 AM 37.1888 -105.9110 252° West 473 544 45,000  Level FlightAware ADS-B
Sat 02:19:28 AM 37.1681 -105.9910 252° West 466 536 45,000  Level FlightAware ADS-B
Sat 02:19:59 AM 37.1479 -106.0680 252° West 465 535 45,000  Level FlightAware ADS-B
Sat 02:20:29 AM 37.1277 -106.1450 252° West 457 526 45,000  Level FlightAware ADS-B
Sat 02:21:00 AM 37.1077 -106.2210 252° West 455 524 45,000  Level FlightAware ADS-B
Sat 02:21:48 AM 37.0780 -106.3300 251° West 456 525 45,000  Level FlightAware ADS-B
Sat 02:22:34 AM 37.0480 -106.4480 252° West 457 526 45,000  Level FlightAware ADS-B
Sat 02:23:13 AM 37.0200 -106.5540 252° West 461 531 45,000  Level FlightAware ADS-B
Sat 02:23:53 AM 36.9930 -106.6540 251° West 458 527 45,000  Level FlightAware ADS-B
Sat 02:24:38 AM 36.9630 -106.7660 251° West 463 533 45,000  Level FlightAware ADS-B
Sat 02:25:23 AM 36.9320 -106.8790 251° West 458 527 45,000  Level FlightAware ADS-B
Sat 02:26:03 AM 36.9060 -106.9760 251° West 457 526 45,000  Level FlightAware ADS-B
Sat 02:26:43 AM 36.8780 -107.0790 251° West 457 526 45,000  Level FlightAware ADS-B
Sat 02:27:43 AM 36.8380 -107.2270 251° West 453 521 45,000  Level FlightAware ADS-B
Sat 02:28:23 AM 36.8100 -107.3290 251° West 459 528 45,000  Level FlightAware ADS-B
Sat 02:29:03 AM 36.7840 -107.4230 251° West 452 520 45,000  Level FlightAware ADS-B
Sat 02:29:38 AM 36.7610 -107.5050 251° West 449 517 45,000  Level FlightAware ADS-B
Sat 02:30:23 AM 36.7300 -107.6170 251° West 450 518 45,000  Level FlightAware ADS-B
Sat 02:30:58 AM 36.7050 -107.7090 251° West 449 517 45,000  Level FlightAware ADS-B
Sat 02:31:38 AM 36.6800 -107.7970 251° West 446 513 45,000  Level FlightAware ADS-B
Sat 02:32:23 AM 36.6470 -107.9140 251° West 442 509 45,000  Level FlightAware ADS-B
Sat 02:32:58 AM 36.6230 -107.9990 251° West 445 512 45,000  Level FlightAware ADS-B
Sat 02:33:43 AM 36.5950 -108.0980 251° West 450 518 45,000  Level FlightAware ADS-B
Sat 02:34:28 AM 36.5620 -108.2150 251° West 449 517 45,000  Level FlightAware ADS-B
Sat 02:35:08 AM 36.5340 -108.3150 251° West 449 517 45,000  Level FlightAware ADS-B
Sat 02:35:53 AM 36.5030 -108.4240 251° West 448 516 45,000  Level FlightAware ADS-B
Sat 02:36:33 AM 36.4760 -108.5190 251° West 451 519 45,000  Level FlightAware ADS-B
Sat 02:37:13 AM 36.4500 -108.6090 250° West 451 519 45,000  Level FlightAware ADS-B
Sat 02:37:53 AM 36.4200 -108.7130 250° West 450 518 45,000  Level FlightAware ADS-B
Sat 02:38:38 AM 36.3880 -108.8230 250° West 454 522 45,000  Level FlightAware ADS-B
Sat 02:39:18 AM 36.3600 -108.9190 250° West 453 521 45,000  Level FlightAware ADS-B
Sat 02:40:13 AM 36.3200 -109.0550 250° West 456 525 45,000  Level FlightAware ADS-B
Sat 02:40:53 AM 36.2910 -109.1550 250° West 452 520 45,000  Level FlightAware ADS-B
Sat 02:41:33 AM 36.2620 -109.2530 250° West 457 526 45,000  Level FlightAware ADS-B
Sat 02:42:17 AM 36.2300 -109.3600 250° West 456 525 45,000  Level FlightAware ADS-B
Sat 02:42:59 AM 36.2000 -109.4620 250° West 450 518 45,000  Level FlightAware ADS-B
Sat 02:43:41 AM 36.1700 -109.5630 250° West 449 517 45,000  Level FlightAware ADS-B
Sat 02:44:25 AM 36.1380 -109.6700 250° West 445 512 45,000  Level FlightAware ADS-B
Sat 02:45:05 AM 36.1090 -109.7660 250° West 452 520 45,000  Level FlightAware ADS-B
Sat 02:45:45 AM 36.0800 -109.8630 250° West 454 522 45,000  Level FlightAware ADS-B
Sat 02:46:29 AM 36.0480 -109.9680 249° West 443 510 45,000  Level FlightAware ADS-B
Sat 02:47:09 AM 36.0190 -110.0640 250° West 446 513 45,000  Level FlightAware ADS-B
Sat 02:47:55 AM 35.9860 -110.1740 250° West 446 513 45,000  Level FlightAware ADS-B
Sat 02:48:35 AM 35.9570 -110.2680 249° West 444 511 45,000  Level FlightAware ADS-B
Sat 02:49:11 AM 35.9310 -110.3540 250° West 444 511 45,000  Level FlightAware ADS-B
Sat 02:49:51 AM 35.9020 -110.4480 249° West 446 513 45,000  Level FlightAware ADS-B
Sat 02:50:35 AM 35.8700 -110.5530 249° West 442 509 45,000  Level FlightAware ADS-B
Sat 02:51:14 AM 35.8420 -110.6430 249° West 444 511 45,000  Level FlightAware ADS-B
Sat 02:51:55 AM 35.8120 -110.7400 249° West 439 505 45,000  Level FlightAware ADS-B
Sat 02:52:40 AM 35.7800 -110.8420 249° West 438 504 45,000  Level FlightAware ADS-B
Sat 02:53:21 AM 35.7490 -110.9420 249° West 441 507 45,000  Level FlightAware ADS-B
Sat 02:54:01 AM 35.7200 -111.0340 249° West 443 510 45,000  Level FlightAware ADS-B
Sat 02:54:37 AM 35.6940 -111.1180 249° West 441 507 45,000  Level FlightAware ADS-B
Sat 02:55:23 AM 35.6600 -111.2260 249° West 441 507 45,000  Level FlightAware ADS-B
Sat 02:56:03 AM 35.6300 -111.3190 248° West 443 510 45,000  Level FlightAware ADS-B
Sat 02:56:47 AM 35.5980 -111.4220 249° West 442 509 45,000  Level FlightAware ADS-B
Sat 02:57:26 AM 35.5680 -111.5140 248° West 442 509 45,000  Level FlightAware ADS-B
Sat 02:58:10 AM 35.5350 -111.6180 249° West 439 505 45,000  Level FlightAware ADS-B
Sat 02:58:50 AM 35.5060 -111.7080 248° West 442 509 45,000  Level FlightAware ADS-B
Sat 02:59:34 AM 35.4730 -111.8110 249° West 447 514 45,000  Level FlightAware ADS-B
Sat 03:00:15 AM 35.4420 -111.9070 248° West 445 512 45,000  Level FlightAware ADS-B
Sat 03:00:55 AM 35.4120 -112.0010 249° West 443 510 45,000  Level FlightAware ADS-B
Sat 03:01:39 AM 35.3780 -112.1040 248° West 448 516 45,000  Level FlightAware ADS-B
Sat 03:02:19 AM 35.3470 -112.1990 248° West 442 509 45,000  Level FlightAware ADS-B
Sat 03:02:59 AM 35.3180 -112.2900 249° West 439 505 45,000  Level FlightAware ADS-B
Sat 03:03:43 AM 35.2840 -112.3940 248° West 438 504 45,000  Level FlightAware ADS-B
Sat 03:04:27 AM 35.2510 -112.4940 248° West 437 503 45,000  Level FlightAware ADS-B
Sat 03:05:07 AM 35.2200 -112.5860 248° West 439 505 45,000  Level FlightAware ADS-B
Sat 03:05:51 AM 35.1870 -112.6860 248° West 443 510 45,000  Level FlightAware ADS-B
Sat 03:06:27 AM 35.1600 -112.7690 248° West 442 509 45,000  Level FlightAware ADS-B
Sat 03:07:07 AM 35.1290 -112.8620 248° West 446 513 45,000  Level FlightAware ADS-B
Sat 03:07:49 AM 35.0960 -112.9590 247° West 441 507 45,000  Level FlightAware ADS-B
Sat 03:08:24 AM 35.0700 -113.0380 248° West 443 510 45,000  Level FlightAware ADS-B
Sat 03:09:09 AM 35.0340 -113.1440 247° West 444 511 45,000  Level FlightAware ADS-B
Sat 03:09:49 AM 35.0030 -113.2380 248° West 443 510 45,000  Level FlightAware ADS-B
Sat 03:10:33 AM 34.9690 -113.3380 247° West 442 509 45,000  Level FlightAware ADS-B
Sat 03:11:14 AM 34.9370 -113.4320 247° West 440 506 45,000  Level FlightAware ADS-B
Sat 03:11:56 AM 34.9110 -113.5070 247° West 439 505 45,000  Level FlightAware ADS-B
Sat 03:12:37 AM 34.8720 -113.6220 248° West 441 507 45,000  Level FlightAware ADS-B
Sat 03:13:13 AM 34.8440 -113.7040 247° West 442 509 45,000  Level FlightAware ADS-B
Sat 03:13:53 AM 34.8120 -113.7970 247° West 441 507 45,000  Level FlightAware ADS-B
Sat 03:14:36 AM 34.7790 -113.8930 247° West 437 503 45,000  Level FlightAware ADS-B
Sat 03:15:13 AM 34.7500 -113.9780 247° West 434 499 45,000  Level FlightAware ADS-B
Sat 03:15:55 AM 34.7170 -114.0720 247° West 433 498 45,000  Level FlightAware ADS-B
Sat 03:16:35 AM 34.6870 -114.1610 248° West 436 502 45,000  Level FlightAware ADS-B
Sat 03:17:19 AM 34.6620 -114.2650 254° West 438 504 45,000  Level FlightAware ADS-B
Sat 03:17:59 AM 34.6400 -114.3610 254° West 439 505 45,000  Level FlightAware ADS-B
Sat 03:18:43 AM 34.6150 -114.4630 253° West 440 506 45,000  Level FlightAware ADS-B
Sat 03:19:23 AM 34.5930 -114.5580 254° West 439 505 45,000  Level FlightAware ADS-B
Sat 03:20:07 AM 34.5680 -114.6620 254° West 444 511 45,000  Level FlightAware ADS-B
Sat 03:20:47 AM 34.5450 -114.7580 254° West 445 512 45,000  Level FlightAware ADS-B
Sat 03:21:31 AM 34.5210 -114.8600 254° West 442 509 45,000  Level FlightAware ADS-B
Sat 03:22:11 AM 34.4980 -114.9550 254° West 443 510 45,000  Level FlightAware ADS-B
Sat 03:22:55 AM 34.4720 -115.0610 253° West 450 518 45,000 -217 Level FlightAware ADS-B
Sat 03:23:34 AM 34.4480 -115.1600 254° West 449 517 44,700 -1,229 Descending FlightAware ADS-B
Sat 03:24:18 AM 34.4230 -115.2630 254° West 447 514 43,300 -2,143 Descending FlightAware ADS-B
Sat 03:24:58 AM 34.3990 -115.3610 253° West 446 513 41,700 -2,471 Descending FlightAware ADS-B
Sat 03:25:43 AM 34.3730 -115.4640 253° West 450 518 39,800 -2,643 Descending FlightAware ADS-B
Sat 03:26:22 AM 34.3490 -115.5610 253° West 454 522 38,000 -2,458 Descending FlightAware ADS-B
Sat 03:27:06 AM 34.3230 -115.6680 254° West 466 536 36,400 -2,143 Descending FlightAware ADS-B
Sat 03:27:46 AM 34.2970 -115.7700 253° West 470 541 35,000 -1,906 Descending FlightAware ADS-B
Sat 03:28:31 AM 34.2690 -115.8840 253° West 472 543 33,700 -1,786 Descending FlightAware ADS-B
Sat 03:29:10 AM 34.2440 -115.9840 253° West 475 547 32,500 -1,880 Descending FlightAware ADS-B
Sat 03:29:54 AM 34.2170 -116.0890 253° West 466 536 31,100 -2,023 Descending FlightAware ADS-B
Sat 03:30:36 AM 34.1900 -116.1960 253° West 460 529 29,600 -2,049 Descending FlightAware ADS-B
Sat 03:31:16 AM 34.1660 -116.2930 253° West 447 514 28,300 -2,000 Descending FlightAware ADS-B
Sat 03:32:00 AM 34.1390 -116.3990 253° West 439 505 26,800 -1,953 Descending FlightAware ADS-B
Sat 03:32:42 AM 34.1140 -116.4940 252° West 430 495 25,500 -1,902 Descending FlightAware ADS-B
Sat 03:33:22 AM 34.0900 -116.5870 253° West 421 484 24,200 -1,857 Descending FlightAware ADS-B
Sat 03:34:06 AM 34.0660 -116.6830 253° West 418 481 22,900 -1,786 Descending FlightAware ADS-B
Sat 03:34:46 AM 34.0430 -116.7720 253° West 408 470 21,700 -1,765 Descending FlightAware ADS-B
Sat 03:35:31 AM 34.0180 -116.8670 252° West 402 463 20,400 -1,786 Descending FlightAware ADS-B
Sat 03:36:10 AM 33.9970 -116.9500 253° West 387 445 19,200 -1,747 Descending FlightAware ADS-B
Sat 03:36:50 AM 33.9740 -117.0340 252° West 386 444 18,100 -1,674 Descending FlightAware ADS-B
Sat 03:37:36 AM 33.9530 -117.1290 255° West 391 450 16,800 -1,610 Descending FlightAware ADS-B
Sat 03:38:12 AM 33.9460 -117.2040 264° West 360 414 15,900 -1,385 Descending FlightAware ADS-B
Sat 03:38:54 AM 33.9390 -117.2870 264° West 354 407 15,000 -1,308 Descending FlightAware ADS-B
Sat 03:39:30 AM 33.9340 -117.3560 265° West 356 410 14,200 -1,286 Descending FlightAware ADS-B
Sat 03:39:50 AM 33.9400 -117.3950 281° West 357 411 13,800 -1,400 Descending FlightAware ADS-B
Sat 03:40:30 AM 33.9650 -117.4690 292° West 349 402 12,800 -1,390 Descending FlightAware ADS-B
Sat 03:41:12 AM 33.9920 -117.5420 294° West 339 390 11,900 -1,214 Descending FlightAware ADS-B
Sat 03:41:54 AM 34.0110 -117.6150 287° West 321 369 11,100 -1,214 Descending FlightAware ADS-B
Sat 03:42:36 AM 34.0060 -117.6890 265° West 305 351 10,200 -1,273 Descending FlightAware ADS-B
Sat 03:43:00 AM 34.0020 -117.7270 263° West 296 341 9,700 -1,294 Descending FlightAware ADS-B
Sat 03:43:27 AM 33.9980 -117.7700 264° West 287 330 9,100 -1,333 Descending FlightAware ADS-B
Sat 03:43:54 AM 33.9940 -117.8140 264° West 283 326 8,500 -1,263 Descending FlightAware ADS-B
Sat 03:44:24 AM 33.9890 -117.8610 263° West 284 327 7,900 -1,241 Descending FlightAware ADS-B
Sat 03:44:52 AM 33.9850 -117.9060 264° West 284 327 7,300 -1,250 Descending FlightAware ADS-B
Sat 03:45:12 AM 33.9820 -117.9350 263° West 281 323 6,900 -1,179 Descending FlightAware ADS-B
Sat 03:45:48 AM 33.9760 -117.9910 263° West 269 310 6,200 -1,250 Descending FlightAware ADS-B
Sat 03:46:00 AM 33.9740 -118.0090 262° West 263 303 5,900 -1,364 Descending FlightAware ADS-B
Sat 03:46:32 AM 33.9700 -118.0550 264° West 253 291 5,200 -1,227 Descending FlightAware ADS-B
Sat 03:46:44 AM 33.9690 -118.0710 266° West 250 288 5,000 -1,200 Descending FlightAware ADS-B
Sat 03:47:12 AM 33.9650 -118.1110 263° West 244 281 4,400 -1,179 Descending FlightAware ADS-B
Sat 03:47:40 AM 33.9610 -118.1470 262° West 236 272 3,900 -1,091 Descending FlightAware ADS-B
Sat 03:47:56 AM 33.9590 -118.1680 263° West 229 264 3,600 -1,227 Descending FlightAware ADS-B
Sat 03:48:24 AM 33.9560 -118.2010 264° West 219 252 3,000 -1,179 Descending FlightAware ADS-B
Sat 03:48:52 AM 33.9530 -118.2310 263° West 206 237 2,500 -1,038 Descending FlightAware ADS-B
Sat 03:49:16 AM 33.9500 -118.2600 263° West 187 215 2,100 -889 Descending FlightAware ADS-B
Sat 03:49:46 AM 33.9470 -118.2880 263° West 171 197 1,700 -931 Descending FlightAware ADS-B
Sat 03:50:14 AM 33.9440 -118.3140 262° West 148 170 1,200 -857 Descending FlightAware ADS-B
Sat 03:50:42 AM 33.9420 -118.3350 263° West 126 145 900 -583 Descending FlightAware ADS-B
Sat 03:51:26 AM 33.9390 -118.3630 263° West 123 142 500 -609 Descending FlightAware ADS-B
Sat 03:51:51 AM 33.9380 -118.3790 266° West 106 122 200 -316 Descending FlightAware ADS-B
Sat 03:52:23 AM 33.9360 -118.3940 261° West 106 122 200 97 Level FlightAware ADS-B
Sat 03:52:53 AM 33.9353 -118.4139 261° West 134 154 300 200 Climbing Los Angeles Center
Sat 03:54:00 AM 33.9333 -118.4000 270° West  Level FlightAware Approximate

Login

Don't have an account? Register now (free) for customized features, flight alerts, and more!